<?xml version="1.0" encoding="UTF-8" standalone="no" ?>
<gpx xmlns="http://www.topografix.com/GPX/1/1" xmlns:xsi="http://www.w3.org/2001/XMLSchema-instance" xsi:schemaLocation="http://www.topografix.com/GPX/1/1 http://www.topografix.com/GPX/1/1/gpx.xsd" version="1.1" creator="VisuGPX - https://www.visugpx.com">
  <metadata>
    <name>83 - L - Chateaudouble </name>
    <desc><![CDATA[83 - L - Chateaudouble : chapelle st Jean -les roches des Malines
2022-11-7]]></desc>
  </metadata>
  <trk>
    <name><![CDATA[Chateaudouble chapelle st Jean  Maline 2022]]></name>
    <trkseg>
      <trkpt lat="43.59394" lon="6.4674">
        <ele>443.8</ele>
        <time>2017-06-02T10:44:38Z</time>
      </trkpt>
      <trkpt lat="43.59393" lon="6.46739">
        <ele>443.8</ele>
        <time>2017-06-02T10:44:39Z</time>
      </trkpt>
      <trkpt lat="43.59387" lon="6.4673">
        <ele>443.8</ele>
        <time>2017-06-02T10:44:50Z</time>
      </trkpt>
      <trkpt lat="43.59378" lon="6.46729">
        <ele>443.9</ele>
        <time>2017-06-02T10:45:26Z</time>
      </trkpt>
      <trkpt lat="43.59371" lon="6.46739">
        <ele>444.9</ele>
        <time>2017-06-02T10:45:37Z</time>
      </trkpt>
      <trkpt lat="43.59363" lon="6.46745">
        <ele>446</ele>
        <time>2017-06-02T10:45:46Z</time>
      </trkpt>
      <trkpt lat="43.59357" lon="6.46755">
        <ele>447.1</ele>
        <time>2017-06-02T10:45:56Z</time>
      </trkpt>
      <trkpt lat="43.5935" lon="6.46763">
        <ele>448.3</ele>
        <time>2017-06-02T10:46:06Z</time>
      </trkpt>
      <trkpt lat="43.59344" lon="6.46772">
        <ele>449.9</ele>
        <time>2017-06-02T10:46:16Z</time>
      </trkpt>
      <trkpt lat="43.59341" lon="6.46784">
        <ele>451.6</ele>
        <time>2017-06-02T10:46:29Z</time>
      </trkpt>
      <trkpt lat="43.59336" lon="6.46795">
        <ele>452.8</ele>
        <time>2017-06-02T10:46:57Z</time>
      </trkpt>
      <trkpt lat="43.5933" lon="6.46806">
        <ele>455</ele>
        <time>2017-06-02T10:47:08Z</time>
      </trkpt>
      <trkpt lat="43.59324" lon="6.46815">
        <ele>455.4</ele>
        <time>2017-06-02T10:47:17Z</time>
      </trkpt>
      <trkpt lat="43.59318" lon="6.46826">
        <ele>456.7</ele>
        <time>2017-06-02T10:47:29Z</time>
      </trkpt>
      <trkpt lat="43.59312" lon="6.46836">
        <ele>458.4</ele>
        <time>2017-06-02T10:47:40Z</time>
      </trkpt>
      <trkpt lat="43.59306" lon="6.46847">
        <ele>460.1</ele>
        <time>2017-06-02T10:47:55Z</time>
      </trkpt>
      <trkpt lat="43.59299" lon="6.46857">
        <ele>462.7</ele>
        <time>2017-06-02T10:48:11Z</time>
      </trkpt>
      <trkpt lat="43.59293" lon="6.46865">
        <ele>464.8</ele>
        <time>2017-06-02T10:48:22Z</time>
      </trkpt>
      <trkpt lat="43.59285" lon="6.46874">
        <ele>466.2</ele>
        <time>2017-06-02T10:48:36Z</time>
      </trkpt>
      <trkpt lat="43.59277" lon="6.46881">
        <ele>467.3</ele>
        <time>2017-06-02T10:50:18Z</time>
      </trkpt>
      <trkpt lat="43.59268" lon="6.46884">
        <ele>468.7</ele>
        <time>2017-06-02T10:50:29Z</time>
      </trkpt>
      <trkpt lat="43.5926" lon="6.46891">
        <ele>469.6</ele>
        <time>2017-06-02T10:50:42Z</time>
      </trkpt>
      <trkpt lat="43.59251" lon="6.46896">
        <ele>470.1</ele>
        <time>2017-06-02T10:50:53Z</time>
      </trkpt>
      <trkpt lat="43.59243" lon="6.46889">
        <ele>470.3</ele>
        <time>2017-06-02T10:51:03Z</time>
      </trkpt>
      <trkpt lat="43.59234" lon="6.4689">
        <ele>471.2</ele>
        <time>2017-06-02T10:51:14Z</time>
      </trkpt>
      <trkpt lat="43.59227" lon="6.46897">
        <ele>470.6</ele>
        <time>2017-06-02T10:51:25Z</time>
      </trkpt>
      <trkpt lat="43.59218" lon="6.46901">
        <ele>467.7</ele>
        <time>2017-06-02T10:51:35Z</time>
      </trkpt>
      <trkpt lat="43.59211" lon="6.46909">
        <ele>470.4</ele>
        <time>2017-06-02T10:51:44Z</time>
      </trkpt>
      <trkpt lat="43.59203" lon="6.46916">
        <ele>470.3</ele>
        <time>2017-06-02T10:51:52Z</time>
      </trkpt>
      <trkpt lat="43.59195" lon="6.46924">
        <ele>470.8</ele>
        <time>2017-06-02T10:52:00Z</time>
      </trkpt>
      <trkpt lat="43.59189" lon="6.46933">
        <ele>471.4</ele>
        <time>2017-06-02T10:52:11Z</time>
      </trkpt>
      <trkpt lat="43.5918" lon="6.46942">
        <ele>472.6</ele>
        <time>2017-06-02T10:52:21Z</time>
      </trkpt>
      <trkpt lat="43.59171" lon="6.4695">
        <ele>474.3</ele>
        <time>2017-06-02T10:52:31Z</time>
      </trkpt>
      <trkpt lat="43.59163" lon="6.46955">
        <ele>476</ele>
        <time>2017-06-02T10:52:43Z</time>
      </trkpt>
      <trkpt lat="43.59155" lon="6.46949">
        <ele>477.8</ele>
        <time>2017-06-02T10:53:11Z</time>
      </trkpt>
      <trkpt lat="43.59149" lon="6.46939">
        <ele>476.8</ele>
        <time>2017-06-02T10:53:28Z</time>
      </trkpt>
      <trkpt lat="43.59142" lon="6.46931">
        <ele>477.2</ele>
        <time>2017-06-02T10:53:37Z</time>
      </trkpt>
      <trkpt lat="43.59134" lon="6.46923">
        <ele>477.9</ele>
        <time>2017-06-02T10:54:07Z</time>
      </trkpt>
      <trkpt lat="43.59128" lon="6.46914">
        <ele>479.6</ele>
        <time>2017-06-02T10:54:30Z</time>
      </trkpt>
      <trkpt lat="43.5912" lon="6.46922">
        <ele>479.6</ele>
        <time>2017-06-02T10:55:09Z</time>
      </trkpt>
      <trkpt lat="43.5911" lon="6.46922">
        <ele>481.9</ele>
        <time>2017-06-02T10:55:23Z</time>
      </trkpt>
      <trkpt lat="43.59101" lon="6.46918">
        <ele>477.8</ele>
        <time>2017-06-02T10:55:35Z</time>
      </trkpt>
      <trkpt lat="43.59094" lon="6.4691">
        <ele>486.9</ele>
        <time>2017-06-02T10:55:49Z</time>
      </trkpt>
      <trkpt lat="43.59094" lon="6.46896">
        <ele>488.7</ele>
        <time>2017-06-02T10:56:05Z</time>
      </trkpt>
      <trkpt lat="43.59085" lon="6.46894">
        <ele>490.5</ele>
        <time>2017-06-02T10:56:19Z</time>
      </trkpt>
      <trkpt lat="43.59075" lon="6.46895">
        <ele>492.4</ele>
        <time>2017-06-02T10:56:33Z</time>
      </trkpt>
      <trkpt lat="43.59065" lon="6.4689">
        <ele>493.9</ele>
        <time>2017-06-02T10:56:42Z</time>
      </trkpt>
      <trkpt lat="43.59056" lon="6.46888">
        <ele>496.9</ele>
        <time>2017-06-02T10:56:56Z</time>
      </trkpt>
      <trkpt lat="43.59048" lon="6.46881">
        <ele>499.3</ele>
        <time>2017-06-02T10:57:10Z</time>
      </trkpt>
      <trkpt lat="43.59042" lon="6.46872">
        <ele>501.1</ele>
        <time>2017-06-02T10:57:23Z</time>
      </trkpt>
      <trkpt lat="43.59037" lon="6.46861">
        <ele>503.3</ele>
        <time>2017-06-02T10:57:42Z</time>
      </trkpt>
      <trkpt lat="43.59031" lon="6.46851">
        <ele>505.4</ele>
        <time>2017-06-02T10:57:55Z</time>
      </trkpt>
      <trkpt lat="43.5903" lon="6.46838">
        <ele>507.1</ele>
        <time>2017-06-02T10:58:09Z</time>
      </trkpt>
      <trkpt lat="43.59022" lon="6.46829">
        <ele>508.4</ele>
        <time>2017-06-02T10:58:14Z</time>
      </trkpt>
      <trkpt lat="43.59017" lon="6.46818">
        <ele>510.6</ele>
        <time>2017-06-02T10:58:25Z</time>
      </trkpt>
      <trkpt lat="43.59014" lon="6.46806">
        <ele>511.7</ele>
        <time>2017-06-02T10:58:52Z</time>
      </trkpt>
      <trkpt lat="43.5901" lon="6.46794">
        <ele>512.5</ele>
        <time>2017-06-02T10:59:04Z</time>
      </trkpt>
      <trkpt lat="43.59008" lon="6.46781">
        <ele>513.8</ele>
        <time>2017-06-02T10:59:16Z</time>
      </trkpt>
      <trkpt lat="43.59004" lon="6.4677">
        <ele>515.1</ele>
        <time>2017-06-02T10:59:26Z</time>
      </trkpt>
      <trkpt lat="43.59" lon="6.46757">
        <ele>516.6</ele>
        <time>2017-06-02T10:59:38Z</time>
      </trkpt>
      <trkpt lat="43.58997" lon="6.46746">
        <ele>518.9</ele>
        <time>2017-06-02T11:00:02Z</time>
      </trkpt>
      <trkpt lat="43.58994" lon="6.46733">
        <ele>519.3</ele>
        <time>2017-06-02T11:00:16Z</time>
      </trkpt>
      <trkpt lat="43.58991" lon="6.46721">
        <ele>520</ele>
        <time>2017-06-02T11:00:28Z</time>
      </trkpt>
      <trkpt lat="43.58986" lon="6.4671">
        <ele>521</ele>
        <time>2017-06-02T11:00:48Z</time>
      </trkpt>
      <trkpt lat="43.58984" lon="6.46697">
        <ele>520.7</ele>
        <time>2017-06-02T11:01:22Z</time>
      </trkpt>
      <trkpt lat="43.58982" lon="6.46685">
        <ele>517.8</ele>
        <time>2017-06-02T11:01:50Z</time>
      </trkpt>
      <trkpt lat="43.58979" lon="6.46673">
        <ele>520.7</ele>
        <time>2017-06-02T11:02:14Z</time>
      </trkpt>
      <trkpt lat="43.58976" lon="6.46661">
        <ele>521.4</ele>
        <time>2017-06-02T11:02:27Z</time>
      </trkpt>
      <trkpt lat="43.58972" lon="6.46649">
        <ele>522.5</ele>
        <time>2017-06-02T11:02:37Z</time>
      </trkpt>
      <trkpt lat="43.58968" lon="6.46637">
        <ele>523.1</ele>
        <time>2017-06-02T11:02:49Z</time>
      </trkpt>
      <trkpt lat="43.58963" lon="6.46627">
        <ele>524.2</ele>
        <time>2017-06-02T11:03:16Z</time>
      </trkpt>
      <trkpt lat="43.58956" lon="6.46618">
        <ele>526.9</ele>
        <time>2017-06-02T11:03:42Z</time>
      </trkpt>
      <trkpt lat="43.5895" lon="6.46607">
        <ele>527.9</ele>
        <time>2017-06-02T11:03:53Z</time>
      </trkpt>
      <trkpt lat="43.58951" lon="6.46594">
        <ele>528.8</ele>
        <time>2017-06-02T11:04:23Z</time>
      </trkpt>
      <trkpt lat="43.58957" lon="6.46584">
        <ele>528.4</ele>
        <time>2017-06-02T11:04:50Z</time>
      </trkpt>
      <trkpt lat="43.58961" lon="6.46572">
        <ele>527.8</ele>
        <time>2017-06-02T11:05:12Z</time>
      </trkpt>
      <trkpt lat="43.58965" lon="6.4656">
        <ele>529.2</ele>
        <time>2017-06-02T11:05:26Z</time>
      </trkpt>
      <trkpt lat="43.5897" lon="6.46549">
        <ele>529.9</ele>
        <time>2017-06-02T11:05:38Z</time>
      </trkpt>
      <trkpt lat="43.58973" lon="6.46537">
        <ele>530.3</ele>
        <time>2017-06-02T11:05:53Z</time>
      </trkpt>
      <trkpt lat="43.58977" lon="6.46524">
        <ele>531.5</ele>
        <time>2017-06-02T11:06:07Z</time>
      </trkpt>
      <trkpt lat="43.58981" lon="6.46511">
        <ele>532.9</ele>
        <time>2017-06-02T11:06:19Z</time>
      </trkpt>
      <trkpt lat="43.58983" lon="6.46499">
        <ele>534.9</ele>
        <time>2017-06-02T11:06:29Z</time>
      </trkpt>
      <trkpt lat="43.58988" lon="6.46488">
        <ele>535.3</ele>
        <time>2017-06-02T11:06:40Z</time>
      </trkpt>
      <trkpt lat="43.58996" lon="6.46481">
        <ele>536.5</ele>
        <time>2017-06-02T11:06:54Z</time>
      </trkpt>
      <trkpt lat="43.59003" lon="6.46474">
        <ele>536.9</ele>
        <time>2017-06-02T11:07:08Z</time>
      </trkpt>
      <trkpt lat="43.59012" lon="6.46476">
        <ele>536.9</ele>
        <time>2017-06-02T11:07:18Z</time>
      </trkpt>
      <trkpt lat="43.59021" lon="6.46472">
        <ele>536.9</ele>
        <time>2017-06-02T11:07:29Z</time>
      </trkpt>
      <trkpt lat="43.59027" lon="6.46462">
        <ele>538.7</ele>
        <time>2017-06-02T11:08:09Z</time>
      </trkpt>
      <trkpt lat="43.59031" lon="6.4645">
        <ele>539.3</ele>
        <time>2017-06-02T11:08:22Z</time>
      </trkpt>
      <trkpt lat="43.59034" lon="6.46438">
        <ele>541.2</ele>
        <time>2017-06-02T11:08:36Z</time>
      </trkpt>
      <trkpt lat="43.59038" lon="6.46426">
        <ele>541.8</ele>
        <time>2017-06-02T11:08:56Z</time>
      </trkpt>
      <trkpt lat="43.59046" lon="6.4642">
        <ele>543.6</ele>
        <time>2017-06-02T11:09:07Z</time>
      </trkpt>
      <trkpt lat="43.59051" lon="6.4641">
        <ele>543.4</ele>
        <time>2017-06-02T11:09:38Z</time>
      </trkpt>
      <trkpt lat="43.59044" lon="6.46401">
        <ele>543.7</ele>
        <time>2017-06-02T11:10:19Z</time>
      </trkpt>
      <trkpt lat="43.59049" lon="6.46385">
        <ele>543</ele>
        <time>2017-06-02T11:15:36Z</time>
      </trkpt>
      <trkpt lat="43.59058" lon="6.46388">
        <ele>542.1</ele>
        <time>2017-06-02T11:15:51Z</time>
      </trkpt>
      <trkpt lat="43.59066" lon="6.46382">
        <ele>541.4</ele>
        <time>2017-06-02T11:16:35Z</time>
      </trkpt>
      <trkpt lat="43.59069" lon="6.4637">
        <ele>542.7</ele>
        <time>2017-06-02T11:16:54Z</time>
      </trkpt>
      <trkpt lat="43.59064" lon="6.46358">
        <ele>541.5</ele>
        <time>2017-06-02T11:17:08Z</time>
      </trkpt>
      <trkpt lat="43.59061" lon="6.46346">
        <ele>541.9</ele>
        <time>2017-06-02T11:17:23Z</time>
      </trkpt>
      <trkpt lat="43.59059" lon="6.46333">
        <ele>542.4</ele>
        <time>2017-06-02T11:17:34Z</time>
      </trkpt>
      <trkpt lat="43.59057" lon="6.46318">
        <ele>543.9</ele>
        <time>2017-06-02T11:17:49Z</time>
      </trkpt>
      <trkpt lat="43.59061" lon="6.46307">
        <ele>543.4</ele>
        <time>2017-06-02T11:18:02Z</time>
      </trkpt>
      <trkpt lat="43.59066" lon="6.46296">
        <ele>541.5</ele>
        <time>2017-06-02T11:18:19Z</time>
      </trkpt>
      <trkpt lat="43.59067" lon="6.46283">
        <ele>540.6</ele>
        <time>2017-06-02T11:18:32Z</time>
      </trkpt>
      <trkpt lat="43.59073" lon="6.46273">
        <ele>541.4</ele>
        <time>2017-06-02T11:18:53Z</time>
      </trkpt>
      <trkpt lat="43.59075" lon="6.4626">
        <ele>540.6</ele>
        <time>2017-06-02T11:19:06Z</time>
      </trkpt>
      <trkpt lat="43.59075" lon="6.46248">
        <ele>537.9</ele>
        <time>2017-06-02T11:20:16Z</time>
      </trkpt>
      <trkpt lat="43.59077" lon="6.46235">
        <ele>538.6</ele>
        <time>2017-06-02T11:20:44Z</time>
      </trkpt>
      <trkpt lat="43.5908" lon="6.46222">
        <ele>537.6</ele>
        <time>2017-06-02T11:20:56Z</time>
      </trkpt>
      <trkpt lat="43.5908" lon="6.46209">
        <ele>536.8</ele>
        <time>2017-06-02T11:21:07Z</time>
      </trkpt>
      <trkpt lat="43.59077" lon="6.46196">
        <ele>536.4</ele>
        <time>2017-06-02T11:21:19Z</time>
      </trkpt>
      <trkpt lat="43.59076" lon="6.46183">
        <ele>535.5</ele>
        <time>2017-06-02T11:21:31Z</time>
      </trkpt>
      <trkpt lat="43.59075" lon="6.4617">
        <ele>534.6</ele>
        <time>2017-06-02T11:21:52Z</time>
      </trkpt>
      <trkpt lat="43.5908" lon="6.4616">
        <ele>532.8</ele>
        <time>2017-06-02T11:22:39Z</time>
      </trkpt>
      <trkpt lat="43.59081" lon="6.46146">
        <ele>532.9</ele>
        <time>2017-06-02T11:22:50Z</time>
      </trkpt>
      <trkpt lat="43.59082" lon="6.46134">
        <ele>533.6</ele>
        <time>2017-06-02T11:23:05Z</time>
      </trkpt>
      <trkpt lat="43.59084" lon="6.4612">
        <ele>532.8</ele>
        <time>2017-06-02T11:23:38Z</time>
      </trkpt>
      <trkpt lat="43.5908" lon="6.46109">
        <ele>532.9</ele>
        <time>2017-06-02T11:23:48Z</time>
      </trkpt>
      <trkpt lat="43.59075" lon="6.46097">
        <ele>533.2</ele>
        <time>2017-06-02T11:23:58Z</time>
      </trkpt>
      <trkpt lat="43.59072" lon="6.46086">
        <ele>533.5</ele>
        <time>2017-06-02T11:24:11Z</time>
      </trkpt>
      <trkpt lat="43.5907" lon="6.46074">
        <ele>534.2</ele>
        <time>2017-06-02T11:24:21Z</time>
      </trkpt>
      <trkpt lat="43.59069" lon="6.4606">
        <ele>529.1</ele>
        <time>2017-06-02T11:24:31Z</time>
      </trkpt>
      <trkpt lat="43.59067" lon="6.46048">
        <ele>534.1</ele>
        <time>2017-06-02T11:24:39Z</time>
      </trkpt>
      <trkpt lat="43.59066" lon="6.46035">
        <ele>534.3</ele>
        <time>2017-06-02T11:24:48Z</time>
      </trkpt>
      <trkpt lat="43.59065" lon="6.46022">
        <ele>534.4</ele>
        <time>2017-06-02T11:24:57Z</time>
      </trkpt>
      <trkpt lat="43.59061" lon="6.46009">
        <ele>534.6</ele>
        <time>2017-06-02T11:25:05Z</time>
      </trkpt>
      <trkpt lat="43.5906" lon="6.45997">
        <ele>535.6</ele>
        <time>2017-06-02T11:25:15Z</time>
      </trkpt>
      <trkpt lat="43.59057" lon="6.45984">
        <ele>536</ele>
        <time>2017-06-02T11:25:25Z</time>
      </trkpt>
      <trkpt lat="43.59057" lon="6.45971">
        <ele>536.6</ele>
        <time>2017-06-02T11:25:35Z</time>
      </trkpt>
      <trkpt lat="43.59057" lon="6.45957">
        <ele>538.3</ele>
        <time>2017-06-02T11:25:46Z</time>
      </trkpt>
      <trkpt lat="43.59059" lon="6.45945">
        <ele>540.1</ele>
        <time>2017-06-02T11:26:02Z</time>
      </trkpt>
      <trkpt lat="43.59061" lon="6.45932">
        <ele>539.5</ele>
        <time>2017-06-02T11:26:12Z</time>
      </trkpt>
      <trkpt lat="43.5906" lon="6.45919">
        <ele>539.2</ele>
        <time>2017-06-02T11:26:19Z</time>
      </trkpt>
      <trkpt lat="43.5906" lon="6.45907">
        <ele>539.5</ele>
        <time>2017-06-02T11:26:29Z</time>
      </trkpt>
      <trkpt lat="43.59056" lon="6.45895">
        <ele>539.8</ele>
        <time>2017-06-02T11:26:40Z</time>
      </trkpt>
      <trkpt lat="43.59053" lon="6.45882">
        <ele>540.3</ele>
        <time>2017-06-02T11:26:50Z</time>
      </trkpt>
      <trkpt lat="43.59047" lon="6.45873">
        <ele>541.6</ele>
        <time>2017-06-02T11:27:00Z</time>
      </trkpt>
      <trkpt lat="43.59044" lon="6.4586">
        <ele>543.1</ele>
        <time>2017-06-02T11:27:10Z</time>
      </trkpt>
      <trkpt lat="43.59042" lon="6.45848">
        <ele>541.6</ele>
        <time>2017-06-02T11:27:20Z</time>
      </trkpt>
      <trkpt lat="43.59039" lon="6.45835">
        <ele>544.5</ele>
        <time>2017-06-02T11:27:35Z</time>
      </trkpt>
      <trkpt lat="43.59037" lon="6.45822">
        <ele>544.4</ele>
        <time>2017-06-02T11:27:44Z</time>
      </trkpt>
      <trkpt lat="43.59037" lon="6.45809">
        <ele>545.2</ele>
        <time>2017-06-02T11:27:53Z</time>
      </trkpt>
      <trkpt lat="43.59041" lon="6.45797">
        <ele>545.9</ele>
        <time>2017-06-02T11:28:03Z</time>
      </trkpt>
      <trkpt lat="43.59042" lon="6.45785">
        <ele>545.8</ele>
        <time>2017-06-02T11:28:11Z</time>
      </trkpt>
      <trkpt lat="43.59043" lon="6.45772">
        <ele>548</ele>
        <time>2017-06-02T11:28:20Z</time>
      </trkpt>
      <trkpt lat="43.5904" lon="6.4576">
        <ele>551.3</ele>
        <time>2017-06-02T11:28:45Z</time>
      </trkpt>
      <trkpt lat="43.59032" lon="6.45755">
        <ele>551.8</ele>
        <time>2017-06-02T11:29:03Z</time>
      </trkpt>
      <trkpt lat="43.59023" lon="6.45752">
        <ele>552.1</ele>
        <time>2017-06-02T11:29:14Z</time>
      </trkpt>
      <trkpt lat="43.59015" lon="6.45746">
        <ele>552.6</ele>
        <time>2017-06-02T11:29:23Z</time>
      </trkpt>
      <trkpt lat="43.59007" lon="6.45738">
        <ele>553.3</ele>
        <time>2017-06-02T11:29:52Z</time>
      </trkpt>
      <trkpt lat="43.58999" lon="6.45731">
        <ele>554.2</ele>
        <time>2017-06-02T11:30:01Z</time>
      </trkpt>
      <trkpt lat="43.58992" lon="6.45722">
        <ele>554.6</ele>
        <time>2017-06-02T11:30:11Z</time>
      </trkpt>
      <trkpt lat="43.58988" lon="6.4571">
        <ele>555</ele>
        <time>2017-06-02T11:30:21Z</time>
      </trkpt>
      <trkpt lat="43.58984" lon="6.45698">
        <ele>555.5</ele>
        <time>2017-06-02T11:30:30Z</time>
      </trkpt>
      <trkpt lat="43.58978" lon="6.45687">
        <ele>556.8</ele>
        <time>2017-06-02T11:31:09Z</time>
      </trkpt>
      <trkpt lat="43.5897" lon="6.4568">
        <ele>557.3</ele>
        <time>2017-06-02T11:31:18Z</time>
      </trkpt>
      <trkpt lat="43.58961" lon="6.45674">
        <ele>554.5</ele>
        <time>2017-06-02T11:31:28Z</time>
      </trkpt>
      <trkpt lat="43.58952" lon="6.45669">
        <ele>557.1</ele>
        <time>2017-06-02T11:31:39Z</time>
      </trkpt>
      <trkpt lat="43.58943" lon="6.45664">
        <ele>555.8</ele>
        <time>2017-06-02T11:31:50Z</time>
      </trkpt>
      <trkpt lat="43.58934" lon="6.45659">
        <ele>555.7</ele>
        <time>2017-06-02T11:31:57Z</time>
      </trkpt>
      <trkpt lat="43.58924" lon="6.45658">
        <ele>557</ele>
        <time>2017-06-02T11:32:06Z</time>
      </trkpt>
      <trkpt lat="43.58915" lon="6.45656">
        <ele>557.4</ele>
        <time>2017-06-02T11:32:15Z</time>
      </trkpt>
      <trkpt lat="43.58906" lon="6.45658">
        <ele>558.1</ele>
        <time>2017-06-02T11:32:31Z</time>
      </trkpt>
      <trkpt lat="43.589" lon="6.45649">
        <ele>559.6</ele>
        <time>2017-06-02T11:33:35Z</time>
      </trkpt>
      <trkpt lat="43.58909" lon="6.45647">
        <ele>560</ele>
        <time>2017-06-02T11:35:18Z</time>
      </trkpt>
      <trkpt lat="43.589" lon="6.45647">
        <ele>559.8</ele>
        <time>2017-06-02T11:37:46Z</time>
      </trkpt>
      <trkpt lat="43.58896" lon="6.45634">
        <ele>560</ele>
        <time>2017-06-02T11:37:56Z</time>
      </trkpt>
      <trkpt lat="43.58894" lon="6.45622">
        <ele>560.1</ele>
        <time>2017-06-02T11:38:06Z</time>
      </trkpt>
      <trkpt lat="43.58893" lon="6.45609">
        <ele>560.9</ele>
        <time>2017-06-02T11:38:17Z</time>
      </trkpt>
      <trkpt lat="43.58893" lon="6.45596">
        <ele>562</ele>
        <time>2017-06-02T11:38:28Z</time>
      </trkpt>
      <trkpt lat="43.58892" lon="6.45583">
        <ele>562.9</ele>
        <time>2017-06-02T11:38:39Z</time>
      </trkpt>
      <trkpt lat="43.58885" lon="6.45591">
        <ele>561.3</ele>
        <time>2017-06-02T11:39:34Z</time>
      </trkpt>
      <trkpt lat="43.58878" lon="6.456">
        <ele>563.7</ele>
        <time>2017-06-02T11:40:17Z</time>
      </trkpt>
      <trkpt lat="43.58871" lon="6.4561">
        <ele>563.3</ele>
        <time>2017-06-02T11:40:27Z</time>
      </trkpt>
      <trkpt lat="43.58864" lon="6.45618">
        <ele>564.1</ele>
        <time>2017-06-02T11:40:36Z</time>
      </trkpt>
      <trkpt lat="43.58856" lon="6.45612">
        <ele>563.8</ele>
        <time>2017-06-02T11:40:57Z</time>
      </trkpt>
      <trkpt lat="43.58859" lon="6.45601">
        <ele>564.9</ele>
        <time>2017-06-02T11:41:19Z</time>
      </trkpt>
      <trkpt lat="43.58854" lon="6.45589">
        <ele>566.1</ele>
        <time>2017-06-02T11:42:03Z</time>
      </trkpt>
      <trkpt lat="43.58845" lon="6.45583">
        <ele>567.1</ele>
        <time>2017-06-02T11:42:15Z</time>
      </trkpt>
      <trkpt lat="43.58836" lon="6.45583">
        <ele>572.1</ele>
        <time>2017-06-02T11:42:46Z</time>
      </trkpt>
      <trkpt lat="43.58827" lon="6.45587">
        <ele>564.7</ele>
        <time>2017-06-02T11:43:04Z</time>
      </trkpt>
      <trkpt lat="43.58818" lon="6.45586">
        <ele>572.5</ele>
        <time>2017-06-02T11:43:16Z</time>
      </trkpt>
      <trkpt lat="43.58809" lon="6.45589">
        <ele>572.9</ele>
        <time>2017-06-02T11:43:27Z</time>
      </trkpt>
      <trkpt lat="43.588" lon="6.45592">
        <ele>574.6</ele>
        <time>2017-06-02T11:44:23Z</time>
      </trkpt>
      <trkpt lat="43.5879" lon="6.45593">
        <ele>571.8</ele>
        <time>2017-06-02T11:44:33Z</time>
      </trkpt>
      <trkpt lat="43.58781" lon="6.45597">
        <ele>574.8</ele>
        <time>2017-06-02T11:44:42Z</time>
      </trkpt>
      <trkpt lat="43.58773" lon="6.45601">
        <ele>574.9</ele>
        <time>2017-06-02T11:44:51Z</time>
      </trkpt>
      <trkpt lat="43.58763" lon="6.45601">
        <ele>575.7</ele>
        <time>2017-06-02T11:45:02Z</time>
      </trkpt>
      <trkpt lat="43.58754" lon="6.45599">
        <ele>576</ele>
        <time>2017-06-02T11:45:12Z</time>
      </trkpt>
      <trkpt lat="43.58744" lon="6.45602">
        <ele>577.5</ele>
        <time>2017-06-02T11:45:22Z</time>
      </trkpt>
      <trkpt lat="43.58735" lon="6.45598">
        <ele>578.9</ele>
        <time>2017-06-02T11:45:32Z</time>
      </trkpt>
      <trkpt lat="43.58728" lon="6.4559">
        <ele>579.2</ele>
        <time>2017-06-02T11:45:42Z</time>
      </trkpt>
      <trkpt lat="43.58722" lon="6.4558">
        <ele>582.6</ele>
        <time>2017-06-02T11:45:56Z</time>
      </trkpt>
      <trkpt lat="43.58715" lon="6.45572">
        <ele>582.4</ele>
        <time>2017-06-02T11:47:03Z</time>
      </trkpt>
      <trkpt lat="43.58706" lon="6.45571">
        <ele>582</ele>
        <time>2017-06-02T11:47:12Z</time>
      </trkpt>
      <trkpt lat="43.58697" lon="6.45572">
        <ele>582.9</ele>
        <time>2017-06-02T11:47:22Z</time>
      </trkpt>
      <trkpt lat="43.58688" lon="6.45574">
        <ele>582.7</ele>
        <time>2017-06-02T11:47:32Z</time>
      </trkpt>
      <trkpt lat="43.58679" lon="6.45574">
        <ele>582.4</ele>
        <time>2017-06-02T11:47:41Z</time>
      </trkpt>
      <trkpt lat="43.5867" lon="6.45577">
        <ele>583.3</ele>
        <time>2017-06-02T11:48:00Z</time>
      </trkpt>
      <trkpt lat="43.58661" lon="6.4558">
        <ele>582.5</ele>
        <time>2017-06-02T11:48:11Z</time>
      </trkpt>
      <trkpt lat="43.58652" lon="6.45586">
        <ele>583</ele>
        <time>2017-06-02T11:48:18Z</time>
      </trkpt>
      <trkpt lat="43.58643" lon="6.45585">
        <ele>582.1</ele>
        <time>2017-06-02T11:50:26Z</time>
      </trkpt>
      <trkpt lat="43.58635" lon="6.45592">
        <ele>582.9</ele>
        <time>2017-06-02T11:50:35Z</time>
      </trkpt>
      <trkpt lat="43.58627" lon="6.45597">
        <ele>585</ele>
        <time>2017-06-02T11:50:47Z</time>
      </trkpt>
      <trkpt lat="43.58618" lon="6.45604">
        <ele>585</ele>
        <time>2017-06-02T11:50:56Z</time>
      </trkpt>
      <trkpt lat="43.58609" lon="6.45606">
        <ele>588.2</ele>
        <time>2017-06-02T11:51:15Z</time>
      </trkpt>
      <trkpt lat="43.586" lon="6.45607">
        <ele>586.4</ele>
        <time>2017-06-02T11:51:33Z</time>
      </trkpt>
      <trkpt lat="43.5859" lon="6.45603">
        <ele>587.6</ele>
        <time>2017-06-02T11:51:46Z</time>
      </trkpt>
      <trkpt lat="43.58581" lon="6.45601">
        <ele>587.3</ele>
        <time>2017-06-02T11:51:54Z</time>
      </trkpt>
      <trkpt lat="43.58571" lon="6.45602">
        <ele>586.9</ele>
        <time>2017-06-02T11:52:02Z</time>
      </trkpt>
      <trkpt lat="43.58562" lon="6.456">
        <ele>587.9</ele>
        <time>2017-06-02T11:52:11Z</time>
      </trkpt>
      <trkpt lat="43.58553" lon="6.456">
        <ele>589.1</ele>
        <time>2017-06-02T11:52:20Z</time>
      </trkpt>
      <trkpt lat="43.58543" lon="6.45602">
        <ele>589.7</ele>
        <time>2017-06-02T11:52:29Z</time>
      </trkpt>
      <trkpt lat="43.58534" lon="6.45605">
        <ele>590.1</ele>
        <time>2017-06-02T11:52:37Z</time>
      </trkpt>
      <trkpt lat="43.58525" lon="6.45612">
        <ele>589.5</ele>
        <time>2017-06-02T11:52:47Z</time>
      </trkpt>
      <trkpt lat="43.58517" lon="6.45619">
        <ele>587.3</ele>
        <time>2017-06-02T11:52:58Z</time>
      </trkpt>
      <trkpt lat="43.5851" lon="6.45626">
        <ele>587.2</ele>
        <time>2017-06-02T11:53:27Z</time>
      </trkpt>
      <trkpt lat="43.58503" lon="6.45635">
        <ele>585.8</ele>
        <time>2017-06-02T11:53:42Z</time>
      </trkpt>
      <trkpt lat="43.58496" lon="6.45644">
        <ele>584.2</ele>
        <time>2017-06-02T11:53:54Z</time>
      </trkpt>
      <trkpt lat="43.58491" lon="6.45655">
        <ele>583.6</ele>
        <time>2017-06-02T11:54:07Z</time>
      </trkpt>
      <trkpt lat="43.58482" lon="6.45659">
        <ele>585.2</ele>
        <time>2017-06-02T11:54:30Z</time>
      </trkpt>
      <trkpt lat="43.58475" lon="6.45668">
        <ele>586.2</ele>
        <time>2017-06-02T11:54:48Z</time>
      </trkpt>
      <trkpt lat="43.58467" lon="6.45674">
        <ele>585.6</ele>
        <time>2017-06-02T11:55:03Z</time>
      </trkpt>
      <trkpt lat="43.58459" lon="6.4568">
        <ele>585.2</ele>
        <time>2017-06-02T11:55:11Z</time>
      </trkpt>
      <trkpt lat="43.5845" lon="6.45686">
        <ele>584.7</ele>
        <time>2017-06-02T11:55:20Z</time>
      </trkpt>
      <trkpt lat="43.58442" lon="6.45692">
        <ele>584.2</ele>
        <time>2017-06-02T11:55:29Z</time>
      </trkpt>
      <trkpt lat="43.58434" lon="6.45696">
        <ele>584</ele>
        <time>2017-06-02T11:55:36Z</time>
      </trkpt>
      <trkpt lat="43.58425" lon="6.45703">
        <ele>583.4</ele>
        <time>2017-06-02T11:55:45Z</time>
      </trkpt>
      <trkpt lat="43.58418" lon="6.45711">
        <ele>582.3</ele>
        <time>2017-06-02T11:55:56Z</time>
      </trkpt>
      <trkpt lat="43.58411" lon="6.45719">
        <ele>581.6</ele>
        <time>2017-06-02T11:56:05Z</time>
      </trkpt>
      <trkpt lat="43.58403" lon="6.45727">
        <ele>580</ele>
        <time>2017-06-02T11:56:14Z</time>
      </trkpt>
      <trkpt lat="43.58399" lon="6.45738">
        <ele>578.4</ele>
        <time>2017-06-02T11:56:36Z</time>
      </trkpt>
      <trkpt lat="43.58392" lon="6.45748">
        <ele>578.9</ele>
        <time>2017-06-02T11:56:45Z</time>
      </trkpt>
      <trkpt lat="43.58387" lon="6.45758">
        <ele>579.3</ele>
        <time>2017-06-02T11:56:54Z</time>
      </trkpt>
      <trkpt lat="43.58382" lon="6.4577">
        <ele>579.3</ele>
        <time>2017-06-02T11:57:03Z</time>
      </trkpt>
      <trkpt lat="43.58377" lon="6.45783">
        <ele>579.4</ele>
        <time>2017-06-02T11:57:13Z</time>
      </trkpt>
      <trkpt lat="43.58369" lon="6.45791">
        <ele>579.4</ele>
        <time>2017-06-02T11:57:23Z</time>
      </trkpt>
      <trkpt lat="43.58361" lon="6.45797">
        <ele>579.3</ele>
        <time>2017-06-02T11:57:34Z</time>
      </trkpt>
      <trkpt lat="43.58352" lon="6.45802">
        <ele>578.8</ele>
        <time>2017-06-02T11:57:44Z</time>
      </trkpt>
      <trkpt lat="43.58344" lon="6.45807">
        <ele>576.9</ele>
        <time>2017-06-02T11:58:12Z</time>
      </trkpt>
      <trkpt lat="43.58335" lon="6.45812">
        <ele>576</ele>
        <time>2017-06-02T11:58:21Z</time>
      </trkpt>
      <trkpt lat="43.58327" lon="6.45817">
        <ele>575.8</ele>
        <time>2017-06-02T11:58:30Z</time>
      </trkpt>
      <trkpt lat="43.58318" lon="6.45823">
        <ele>575.6</ele>
        <time>2017-06-02T11:58:41Z</time>
      </trkpt>
      <trkpt lat="43.58312" lon="6.45832">
        <ele>575</ele>
        <time>2017-06-02T11:59:18Z</time>
      </trkpt>
      <trkpt lat="43.58305" lon="6.45841">
        <ele>571.6</ele>
        <time>2017-06-02T12:00:42Z</time>
      </trkpt>
      <trkpt lat="43.58297" lon="6.45847">
        <ele>572.2</ele>
        <time>2017-06-02T12:00:54Z</time>
      </trkpt>
      <trkpt lat="43.58289" lon="6.45854">
        <ele>572.3</ele>
        <time>2017-06-02T12:01:07Z</time>
      </trkpt>
      <trkpt lat="43.5828" lon="6.45853">
        <ele>573.2</ele>
        <time>2017-06-02T12:01:17Z</time>
      </trkpt>
      <trkpt lat="43.58277" lon="6.4584">
        <ele>573.5</ele>
        <time>2017-06-02T12:01:38Z</time>
      </trkpt>
      <trkpt lat="43.58274" lon="6.45828">
        <ele>573.2</ele>
        <time>2017-06-02T12:01:47Z</time>
      </trkpt>
      <trkpt lat="43.58271" lon="6.45816">
        <ele>572.8</ele>
        <time>2017-06-02T12:01:56Z</time>
      </trkpt>
      <trkpt lat="43.58262" lon="6.45811">
        <ele>574.3</ele>
        <time>2017-06-02T12:02:08Z</time>
      </trkpt>
      <trkpt lat="43.58253" lon="6.45808">
        <ele>576</ele>
        <time>2017-06-02T12:02:28Z</time>
      </trkpt>
      <trkpt lat="43.58244" lon="6.45808">
        <ele>577.7</ele>
        <time>2017-06-02T12:04:51Z</time>
      </trkpt>
      <trkpt lat="43.58236" lon="6.45801">
        <ele>577.8</ele>
        <time>2017-06-02T12:05:42Z</time>
      </trkpt>
      <trkpt lat="43.58228" lon="6.45795">
        <ele>580.4</ele>
        <time>2017-06-02T12:06:50Z</time>
      </trkpt>
      <trkpt lat="43.58222" lon="6.45786">
        <ele>580.7</ele>
        <time>2017-06-02T12:07:03Z</time>
      </trkpt>
      <trkpt lat="43.58216" lon="6.45775">
        <ele>581</ele>
        <time>2017-06-02T12:07:13Z</time>
      </trkpt>
      <trkpt lat="43.58213" lon="6.45763">
        <ele>581.3</ele>
        <time>2017-06-02T12:07:22Z</time>
      </trkpt>
      <trkpt lat="43.58206" lon="6.45755">
        <ele>581.4</ele>
        <time>2017-06-02T12:07:33Z</time>
      </trkpt>
      <trkpt lat="43.58203" lon="6.45742">
        <ele>580.4</ele>
        <time>2017-06-02T12:07:43Z</time>
      </trkpt>
      <trkpt lat="43.582" lon="6.4573">
        <ele>580.3</ele>
        <time>2017-06-02T12:07:51Z</time>
      </trkpt>
      <trkpt lat="43.58193" lon="6.45721">
        <ele>580.1</ele>
        <time>2017-06-02T12:08:00Z</time>
      </trkpt>
      <trkpt lat="43.58188" lon="6.45711">
        <ele>580.3</ele>
        <time>2017-06-02T12:08:10Z</time>
      </trkpt>
      <trkpt lat="43.58185" lon="6.45697">
        <ele>580.5</ele>
        <time>2017-06-02T12:08:17Z</time>
      </trkpt>
      <trkpt lat="43.58183" lon="6.45685">
        <ele>580.5</ele>
        <time>2017-06-02T12:08:26Z</time>
      </trkpt>
      <trkpt lat="43.58179" lon="6.45673">
        <ele>580.4</ele>
        <time>2017-06-02T12:08:36Z</time>
      </trkpt>
      <trkpt lat="43.58175" lon="6.45662">
        <ele>581.2</ele>
        <time>2017-06-02T12:08:47Z</time>
      </trkpt>
      <trkpt lat="43.58171" lon="6.4565">
        <ele>581.8</ele>
        <time>2017-06-02T12:08:59Z</time>
      </trkpt>
      <trkpt lat="43.58166" lon="6.45639">
        <ele>582.4</ele>
        <time>2017-06-02T12:09:13Z</time>
      </trkpt>
      <trkpt lat="43.58164" lon="6.45626">
        <ele>582.4</ele>
        <time>2017-06-02T12:09:23Z</time>
      </trkpt>
      <trkpt lat="43.58163" lon="6.45613">
        <ele>582.6</ele>
        <time>2017-06-02T12:09:32Z</time>
      </trkpt>
      <trkpt lat="43.5816" lon="6.45599">
        <ele>582.4</ele>
        <time>2017-06-02T12:09:42Z</time>
      </trkpt>
      <trkpt lat="43.58161" lon="6.45587">
        <ele>581.6</ele>
        <time>2017-06-02T12:09:53Z</time>
      </trkpt>
      <trkpt lat="43.58155" lon="6.45576">
        <ele>581.6</ele>
        <time>2017-06-02T12:10:06Z</time>
      </trkpt>
      <trkpt lat="43.5815" lon="6.45564">
        <ele>582.1</ele>
        <time>2017-06-02T12:10:16Z</time>
      </trkpt>
      <trkpt lat="43.58148" lon="6.45551">
        <ele>582.9</ele>
        <time>2017-06-02T12:10:25Z</time>
      </trkpt>
      <trkpt lat="43.58143" lon="6.4554">
        <ele>583.1</ele>
        <time>2017-06-02T12:10:33Z</time>
      </trkpt>
      <trkpt lat="43.58143" lon="6.45528">
        <ele>583.4</ele>
        <time>2017-06-02T12:10:41Z</time>
      </trkpt>
      <trkpt lat="43.58138" lon="6.45516">
        <ele>583.2</ele>
        <time>2017-06-02T12:10:50Z</time>
      </trkpt>
      <trkpt lat="43.5813" lon="6.45511">
        <ele>583.7</ele>
        <time>2017-06-02T12:10:59Z</time>
      </trkpt>
      <trkpt lat="43.58123" lon="6.45503">
        <ele>583.3</ele>
        <time>2017-06-02T12:11:07Z</time>
      </trkpt>
      <trkpt lat="43.58116" lon="6.45493">
        <ele>583.7</ele>
        <time>2017-06-02T12:11:15Z</time>
      </trkpt>
      <trkpt lat="43.5811" lon="6.45484">
        <ele>582.9</ele>
        <time>2017-06-02T12:11:26Z</time>
      </trkpt>
      <trkpt lat="43.58101" lon="6.4548">
        <ele>582.6</ele>
        <time>2017-06-02T12:11:35Z</time>
      </trkpt>
      <trkpt lat="43.58095" lon="6.45469">
        <ele>582.7</ele>
        <time>2017-06-02T12:11:44Z</time>
      </trkpt>
      <trkpt lat="43.58091" lon="6.45457">
        <ele>582.5</ele>
        <time>2017-06-02T12:11:53Z</time>
      </trkpt>
      <trkpt lat="43.58086" lon="6.45447">
        <ele>581.9</ele>
        <time>2017-06-02T12:12:03Z</time>
      </trkpt>
      <trkpt lat="43.58082" lon="6.45435">
        <ele>582.4</ele>
        <time>2017-06-02T12:12:24Z</time>
      </trkpt>
      <trkpt lat="43.58079" lon="6.45423">
        <ele>582</ele>
        <time>2017-06-02T12:12:34Z</time>
      </trkpt>
      <trkpt lat="43.5808" lon="6.45409">
        <ele>579.4</ele>
        <time>2017-06-02T12:12:53Z</time>
      </trkpt>
      <trkpt lat="43.5808" lon="6.45396">
        <ele>578.3</ele>
        <time>2017-06-02T12:13:05Z</time>
      </trkpt>
      <trkpt lat="43.58082" lon="6.45383">
        <ele>578.7</ele>
        <time>2017-06-02T12:13:16Z</time>
      </trkpt>
      <trkpt lat="43.58077" lon="6.4537">
        <ele>579.2</ele>
        <time>2017-06-02T12:13:26Z</time>
      </trkpt>
      <trkpt lat="43.58081" lon="6.45359">
        <ele>580.4</ele>
        <time>2017-06-02T12:13:34Z</time>
      </trkpt>
      <trkpt lat="43.58081" lon="6.45346">
        <ele>580.8</ele>
        <time>2017-06-02T12:13:46Z</time>
      </trkpt>
      <trkpt lat="43.58079" lon="6.45334">
        <ele>580</ele>
        <time>2017-06-02T12:13:56Z</time>
      </trkpt>
      <trkpt lat="43.58078" lon="6.45321">
        <ele>578.4</ele>
        <time>2017-06-02T12:14:06Z</time>
      </trkpt>
      <trkpt lat="43.58073" lon="6.45309">
        <ele>577.7</ele>
        <time>2017-06-02T12:14:17Z</time>
      </trkpt>
      <trkpt lat="43.58071" lon="6.45297">
        <ele>577</ele>
        <time>2017-06-02T12:14:26Z</time>
      </trkpt>
      <trkpt lat="43.58068" lon="6.45284">
        <ele>576.5</ele>
        <time>2017-06-02T12:14:34Z</time>
      </trkpt>
      <trkpt lat="43.58064" lon="6.45272">
        <ele>576.4</ele>
        <time>2017-06-02T12:14:41Z</time>
      </trkpt>
      <trkpt lat="43.5806" lon="6.45261">
        <ele>577.1</ele>
        <time>2017-06-02T12:14:51Z</time>
      </trkpt>
      <trkpt lat="43.58054" lon="6.45252">
        <ele>577.6</ele>
        <time>2017-06-02T12:14:59Z</time>
      </trkpt>
      <trkpt lat="43.58049" lon="6.45241">
        <ele>578.3</ele>
        <time>2017-06-02T12:15:09Z</time>
      </trkpt>
      <trkpt lat="43.58042" lon="6.45232">
        <ele>579.3</ele>
        <time>2017-06-02T12:15:20Z</time>
      </trkpt>
      <trkpt lat="43.58038" lon="6.45221">
        <ele>579.3</ele>
        <time>2017-06-02T12:15:29Z</time>
      </trkpt>
      <trkpt lat="43.5803" lon="6.45212">
        <ele>580.2</ele>
        <time>2017-06-02T12:15:37Z</time>
      </trkpt>
      <trkpt lat="43.58025" lon="6.45203">
        <ele>580</ele>
        <time>2017-06-02T12:15:46Z</time>
      </trkpt>
      <trkpt lat="43.58018" lon="6.45194">
        <ele>578.5</ele>
        <time>2017-06-02T12:15:57Z</time>
      </trkpt>
      <trkpt lat="43.58011" lon="6.45185">
        <ele>577.7</ele>
        <time>2017-06-02T12:16:07Z</time>
      </trkpt>
      <trkpt lat="43.58004" lon="6.45176">
        <ele>577.8</ele>
        <time>2017-06-02T12:16:17Z</time>
      </trkpt>
      <trkpt lat="43.57997" lon="6.45168">
        <ele>577.8</ele>
        <time>2017-06-02T12:16:27Z</time>
      </trkpt>
      <trkpt lat="43.57991" lon="6.45158">
        <ele>577.6</ele>
        <time>2017-06-02T12:16:37Z</time>
      </trkpt>
      <trkpt lat="43.57986" lon="6.45147">
        <ele>578.1</ele>
        <time>2017-06-02T12:16:46Z</time>
      </trkpt>
      <trkpt lat="43.5798" lon="6.45136">
        <ele>578.9</ele>
        <time>2017-06-02T12:16:55Z</time>
      </trkpt>
      <trkpt lat="43.57974" lon="6.45125">
        <ele>578.9</ele>
        <time>2017-06-02T12:17:06Z</time>
      </trkpt>
      <trkpt lat="43.57969" lon="6.45114">
        <ele>579.1</ele>
        <time>2017-06-02T12:17:16Z</time>
      </trkpt>
      <trkpt lat="43.57961" lon="6.45107">
        <ele>579</ele>
        <time>2017-06-02T12:17:26Z</time>
      </trkpt>
      <trkpt lat="43.57956" lon="6.45095">
        <ele>580.7</ele>
        <time>2017-06-02T12:17:37Z</time>
      </trkpt>
      <trkpt lat="43.57949" lon="6.45085">
        <ele>580.2</ele>
        <time>2017-06-02T12:17:47Z</time>
      </trkpt>
      <trkpt lat="43.57943" lon="6.45076">
        <ele>580.7</ele>
        <time>2017-06-02T12:17:58Z</time>
      </trkpt>
      <trkpt lat="43.57941" lon="6.45064">
        <ele>581.2</ele>
        <time>2017-06-02T12:18:07Z</time>
      </trkpt>
      <trkpt lat="43.57934" lon="6.45055">
        <ele>581.1</ele>
        <time>2017-06-02T12:18:19Z</time>
      </trkpt>
      <trkpt lat="43.57931" lon="6.45043">
        <ele>581.1</ele>
        <time>2017-06-02T12:18:27Z</time>
      </trkpt>
      <trkpt lat="43.57929" lon="6.4503">
        <ele>581.6</ele>
        <time>2017-06-02T12:18:35Z</time>
      </trkpt>
      <trkpt lat="43.57926" lon="6.45018">
        <ele>582.3</ele>
        <time>2017-06-02T12:18:44Z</time>
      </trkpt>
      <trkpt lat="43.57926" lon="6.45005">
        <ele>582.4</ele>
        <time>2017-06-02T12:18:51Z</time>
      </trkpt>
      <trkpt lat="43.57918" lon="6.44998">
        <ele>582.4</ele>
        <time>2017-06-02T12:18:58Z</time>
      </trkpt>
      <trkpt lat="43.57914" lon="6.44986">
        <ele>582</ele>
        <time>2017-06-02T12:19:08Z</time>
      </trkpt>
      <trkpt lat="43.57914" lon="6.44973">
        <ele>581.4</ele>
        <time>2017-06-02T12:19:19Z</time>
      </trkpt>
      <trkpt lat="43.57913" lon="6.44961">
        <ele>580.3</ele>
        <time>2017-06-02T12:19:29Z</time>
      </trkpt>
      <trkpt lat="43.57914" lon="6.44948">
        <ele>578.8</ele>
        <time>2017-06-02T12:19:41Z</time>
      </trkpt>
      <trkpt lat="43.57912" lon="6.44936">
        <ele>575.7</ele>
        <time>2017-06-02T12:20:01Z</time>
      </trkpt>
      <trkpt lat="43.57913" lon="6.44922">
        <ele>574.6</ele>
        <time>2017-06-02T12:20:17Z</time>
      </trkpt>
      <trkpt lat="43.57914" lon="6.44909">
        <ele>573.2</ele>
        <time>2017-06-02T12:20:28Z</time>
      </trkpt>
      <trkpt lat="43.57914" lon="6.44896">
        <ele>571.8</ele>
        <time>2017-06-02T12:20:37Z</time>
      </trkpt>
      <trkpt lat="43.57917" lon="6.44882">
        <ele>570.6</ele>
        <time>2017-06-02T12:20:45Z</time>
      </trkpt>
      <trkpt lat="43.5792" lon="6.4487">
        <ele>569.9</ele>
        <time>2017-06-02T12:20:53Z</time>
      </trkpt>
      <trkpt lat="43.57924" lon="6.44858">
        <ele>569.7</ele>
        <time>2017-06-02T12:21:02Z</time>
      </trkpt>
      <trkpt lat="43.5793" lon="6.44848">
        <ele>569.8</ele>
        <time>2017-06-02T12:21:12Z</time>
      </trkpt>
      <trkpt lat="43.57938" lon="6.44839">
        <ele>569.9</ele>
        <time>2017-06-02T12:21:21Z</time>
      </trkpt>
      <trkpt lat="43.57945" lon="6.44831">
        <ele>570.6</ele>
        <time>2017-06-02T12:21:33Z</time>
      </trkpt>
      <trkpt lat="43.57952" lon="6.44822">
        <ele>570.8</ele>
        <time>2017-06-02T12:21:42Z</time>
      </trkpt>
      <trkpt lat="43.5796" lon="6.44816">
        <ele>570.6</ele>
        <time>2017-06-02T12:21:51Z</time>
      </trkpt>
      <trkpt lat="43.57968" lon="6.44809">
        <ele>570.9</ele>
        <time>2017-06-02T12:22:00Z</time>
      </trkpt>
      <trkpt lat="43.57976" lon="6.44804">
        <ele>571.5</ele>
        <time>2017-06-02T12:22:08Z</time>
      </trkpt>
      <trkpt lat="43.57986" lon="6.448">
        <ele>571.8</ele>
        <time>2017-06-02T12:22:18Z</time>
      </trkpt>
      <trkpt lat="43.57994" lon="6.44796">
        <ele>572.1</ele>
        <time>2017-06-02T12:22:27Z</time>
      </trkpt>
      <trkpt lat="43.58003" lon="6.44791">
        <ele>572.8</ele>
        <time>2017-06-02T12:22:36Z</time>
      </trkpt>
      <trkpt lat="43.58012" lon="6.44788">
        <ele>573.1</ele>
        <time>2017-06-02T12:22:45Z</time>
      </trkpt>
      <trkpt lat="43.5802" lon="6.44781">
        <ele>573.4</ele>
        <time>2017-06-02T12:22:54Z</time>
      </trkpt>
      <trkpt lat="43.58026" lon="6.44771">
        <ele>571.9</ele>
        <time>2017-06-02T12:24:08Z</time>
      </trkpt>
      <trkpt lat="43.58034" lon="6.44763">
        <ele>573</ele>
        <time>2017-06-02T12:24:20Z</time>
      </trkpt>
      <trkpt lat="43.58042" lon="6.44757">
        <ele>574</ele>
        <time>2017-06-02T12:25:36Z</time>
      </trkpt>
      <trkpt lat="43.58049" lon="6.44748">
        <ele>572.2</ele>
        <time>2017-06-02T12:26:17Z</time>
      </trkpt>
      <trkpt lat="43.58056" lon="6.44739">
        <ele>570.2</ele>
        <time>2017-06-02T12:26:30Z</time>
      </trkpt>
      <trkpt lat="43.58063" lon="6.4473">
        <ele>570.7</ele>
        <time>2017-06-02T12:26:42Z</time>
      </trkpt>
      <trkpt lat="43.5807" lon="6.44721">
        <ele>571.5</ele>
        <time>2017-06-02T12:26:54Z</time>
      </trkpt>
      <trkpt lat="43.58078" lon="6.44715">
        <ele>573</ele>
        <time>2017-06-02T12:27:07Z</time>
      </trkpt>
      <trkpt lat="43.58087" lon="6.44713">
        <ele>570.9</ele>
        <time>2017-06-02T12:27:18Z</time>
      </trkpt>
      <trkpt lat="43.58096" lon="6.4471">
        <ele>573.9</ele>
        <time>2017-06-02T12:27:46Z</time>
      </trkpt>
      <trkpt lat="43.58095" lon="6.44698">
        <ele>574.5</ele>
        <time>2017-06-02T12:34:08Z</time>
      </trkpt>
      <trkpt lat="43.58094" lon="6.44685">
        <ele>574.9</ele>
        <time>2017-06-02T12:34:20Z</time>
      </trkpt>
      <trkpt lat="43.58096" lon="6.44672">
        <ele>575.9</ele>
        <time>2017-06-02T12:34:29Z</time>
      </trkpt>
      <trkpt lat="43.58093" lon="6.4466">
        <ele>576.2</ele>
        <time>2017-06-02T12:34:41Z</time>
      </trkpt>
      <trkpt lat="43.58092" lon="6.44647">
        <ele>576.2</ele>
        <time>2017-06-02T12:34:52Z</time>
      </trkpt>
      <trkpt lat="43.58089" lon="6.44635">
        <ele>576.5</ele>
        <time>2017-06-02T12:35:03Z</time>
      </trkpt>
      <trkpt lat="43.58081" lon="6.44629">
        <ele>576.6</ele>
        <time>2017-06-02T12:35:10Z</time>
      </trkpt>
      <trkpt lat="43.58074" lon="6.4462">
        <ele>577.3</ele>
        <time>2017-06-02T12:35:24Z</time>
      </trkpt>
      <trkpt lat="43.58074" lon="6.4462">
        <ele>577.3</ele>
        <time>2017-06-02T12:35:24Z</time>
      </trkpt>
      <trkpt lat="43.58078" lon="6.44632">
        <ele>584</ele>
        <time>2017-06-02T03:47:40Z</time>
      </trkpt>
      <trkpt lat="43.58069" lon="6.44621">
        <ele>583.9</ele>
        <time>2017-06-02T03:47:40Z</time>
      </trkpt>
      <trkpt lat="43.58061" lon="6.44608">
        <ele>584</ele>
        <time>2017-06-02T03:47:40Z</time>
      </trkpt>
      <trkpt lat="43.5805" lon="6.446">
        <ele>583.4</ele>
        <time>2017-06-02T03:47:40Z</time>
      </trkpt>
      <trkpt lat="43.5805" lon="6.446">
        <ele>583.4</ele>
        <time>2017-06-02T03:47:40Z</time>
      </trkpt>
      <trkpt lat="43.58041" lon="6.44585">
        <ele>583.3</ele>
        <time>2017-06-02T03:47:40Z</time>
      </trkpt>
      <trkpt lat="43.58033" lon="6.44574">
        <ele>583.1</ele>
        <time>2017-06-02T03:47:40Z</time>
      </trkpt>
      <trkpt lat="43.58033" lon="6.44574">
        <ele>583.1</ele>
        <time>2017-06-02T03:47:40Z</time>
      </trkpt>
      <trkpt lat="43.58027" lon="6.44558">
        <ele>583.2</ele>
        <time>2017-06-02T03:47:40Z</time>
      </trkpt>
      <trkpt lat="43.58027" lon="6.44558">
        <ele>583.2</ele>
        <time>2017-06-02T03:47:40Z</time>
      </trkpt>
      <trkpt lat="43.5802" lon="6.44537">
        <ele>583.2</ele>
        <time>2017-06-02T03:47:40Z</time>
      </trkpt>
      <trkpt lat="43.5802" lon="6.44537">
        <ele>583.2</ele>
        <time>2017-06-02T03:47:40Z</time>
      </trkpt>
      <trkpt lat="43.58012" lon="6.44519">
        <ele>583</ele>
        <time>2017-06-02T03:47:40Z</time>
      </trkpt>
      <trkpt lat="43.58012" lon="6.44519">
        <ele>583</ele>
        <time>2017-06-02T03:47:40Z</time>
      </trkpt>
      <trkpt lat="43.58011" lon="6.44492">
        <ele>584</ele>
        <time>2017-06-02T03:47:40Z</time>
      </trkpt>
      <trkpt lat="43.58011" lon="6.44492">
        <ele>584</ele>
        <time>2017-06-02T03:47:40Z</time>
      </trkpt>
      <trkpt lat="43.58008" lon="6.44476">
        <ele>584.4</ele>
        <time>2017-06-02T03:47:40Z</time>
      </trkpt>
      <trkpt lat="43.58008" lon="6.44476">
        <ele>584.4</ele>
        <time>2017-06-02T03:47:40Z</time>
      </trkpt>
      <trkpt lat="43.58001" lon="6.44464">
        <ele>584</ele>
        <time>2017-06-02T03:47:40Z</time>
      </trkpt>
      <trkpt lat="43.58001" lon="6.44464">
        <ele>584</ele>
        <time>2017-06-02T03:47:40Z</time>
      </trkpt>
      <trkpt lat="43.58001" lon="6.44464">
        <ele>584</ele>
        <time>2017-06-02T03:47:40Z</time>
      </trkpt>
      <trkpt lat="43.57993" lon="6.44448">
        <ele>584.2</ele>
        <time>2017-06-02T03:47:40Z</time>
      </trkpt>
      <trkpt lat="43.57981" lon="6.44441">
        <ele>584</ele>
        <time>2017-06-02T03:47:40Z</time>
      </trkpt>
      <trkpt lat="43.57973" lon="6.44432">
        <ele>584.2</ele>
        <time>2017-06-02T03:47:40Z</time>
      </trkpt>
      <trkpt lat="43.57973" lon="6.44432">
        <ele>584.2</ele>
        <time>2017-06-02T03:47:40Z</time>
      </trkpt>
      <trkpt lat="43.57966" lon="6.44417">
        <ele>584.8</ele>
        <time>2017-06-02T03:47:40Z</time>
      </trkpt>
      <trkpt lat="43.57966" lon="6.44417">
        <ele>584.8</ele>
        <time>2017-06-02T03:47:40Z</time>
      </trkpt>
      <trkpt lat="43.57966" lon="6.44417">
        <ele>584.8</ele>
        <time>2017-06-02T03:47:40Z</time>
      </trkpt>
      <trkpt lat="43.57961" lon="6.44402">
        <ele>585.4</ele>
        <time>2017-06-02T03:47:40Z</time>
      </trkpt>
      <trkpt lat="43.57961" lon="6.44402">
        <ele>585.4</ele>
        <time>2017-06-02T03:47:40Z</time>
      </trkpt>
      <trkpt lat="43.57961" lon="6.44402">
        <ele>585.4</ele>
        <time>2017-06-02T03:47:40Z</time>
      </trkpt>
      <trkpt lat="43.5795" lon="6.44391">
        <ele>585.6</ele>
        <time>2017-06-02T03:47:40Z</time>
      </trkpt>
      <trkpt lat="43.5795" lon="6.44391">
        <ele>585.6</ele>
        <time>2017-06-02T03:47:40Z</time>
      </trkpt>
      <trkpt lat="43.57944" lon="6.44377">
        <ele>586.1</ele>
        <time>2017-06-02T03:47:40Z</time>
      </trkpt>
      <trkpt lat="43.57944" lon="6.44377">
        <ele>586.1</ele>
        <time>2017-06-02T03:47:40Z</time>
      </trkpt>
      <trkpt lat="43.57943" lon="6.44359">
        <ele>586.9</ele>
        <time>2017-06-02T03:47:40Z</time>
      </trkpt>
      <trkpt lat="43.57943" lon="6.44359">
        <ele>586.9</ele>
        <time>2017-06-02T03:47:40Z</time>
      </trkpt>
      <trkpt lat="43.57941" lon="6.44342">
        <ele>587.8</ele>
        <time>2017-06-02T03:47:40Z</time>
      </trkpt>
      <trkpt lat="43.57941" lon="6.44342">
        <ele>587.8</ele>
        <time>2017-06-02T03:47:40Z</time>
      </trkpt>
      <trkpt lat="43.57941" lon="6.44342">
        <ele>587.8</ele>
        <time>2017-06-02T03:47:40Z</time>
      </trkpt>
      <trkpt lat="43.57945" lon="6.44325">
        <ele>589.1</ele>
        <time>2017-06-02T03:47:40Z</time>
      </trkpt>
      <trkpt lat="43.57948" lon="6.44311">
        <ele>590.3</ele>
        <time>2017-06-02T03:47:40Z</time>
      </trkpt>
      <trkpt lat="43.57948" lon="6.44311">
        <ele>590.3</ele>
        <time>2017-06-02T03:47:40Z</time>
      </trkpt>
      <trkpt lat="43.57949" lon="6.44294">
        <ele>591.7</ele>
        <time>2017-06-02T03:47:40Z</time>
      </trkpt>
      <trkpt lat="43.57953" lon="6.4428">
        <ele>593</ele>
        <time>2017-06-02T03:47:40Z</time>
      </trkpt>
      <trkpt lat="43.57957" lon="6.44265">
        <ele>594.3</ele>
        <time>2017-06-02T03:47:40Z</time>
      </trkpt>
      <trkpt lat="43.57959" lon="6.44251">
        <ele>595.5</ele>
        <time>2017-06-02T03:47:40Z</time>
      </trkpt>
      <trkpt lat="43.57959" lon="6.44251">
        <ele>595.5</ele>
        <time>2017-06-02T03:47:40Z</time>
      </trkpt>
      <trkpt lat="43.57969" lon="6.44229">
        <ele>597.8</ele>
        <time>2017-06-02T03:47:40Z</time>
      </trkpt>
      <trkpt lat="43.57969" lon="6.44229">
        <ele>597.8</ele>
        <time>2017-06-02T03:47:40Z</time>
      </trkpt>
      <trkpt lat="43.57978" lon="6.44214">
        <ele>599.2</ele>
        <time>2017-06-02T03:47:40Z</time>
      </trkpt>
      <trkpt lat="43.57978" lon="6.44214">
        <ele>599.2</ele>
        <time>2017-06-02T03:47:40Z</time>
      </trkpt>
      <trkpt lat="43.57981" lon="6.442">
        <ele>600.3</ele>
        <time>2017-06-02T03:47:40Z</time>
      </trkpt>
      <trkpt lat="43.57981" lon="6.442">
        <ele>600.3</ele>
        <time>2017-06-02T03:47:40Z</time>
      </trkpt>
      <trkpt lat="43.5799" lon="6.44183">
        <ele>601.8</ele>
        <time>2017-06-02T03:47:40Z</time>
      </trkpt>
      <trkpt lat="43.5799" lon="6.44183">
        <ele>601.8</ele>
        <time>2017-06-02T03:47:40Z</time>
      </trkpt>
      <trkpt lat="43.57995" lon="6.44169">
        <ele>602.8</ele>
        <time>2017-06-02T03:47:40Z</time>
      </trkpt>
      <trkpt lat="43.57995" lon="6.44169">
        <ele>602.8</ele>
        <time>2017-06-02T03:47:40Z</time>
      </trkpt>
      <trkpt lat="43.57995" lon="6.44169">
        <ele>602.8</ele>
        <time>2017-06-02T03:47:40Z</time>
      </trkpt>
      <trkpt lat="43.58003" lon="6.4415">
        <ele>603.5</ele>
        <time>2017-06-02T03:47:40Z</time>
      </trkpt>
      <trkpt lat="43.58003" lon="6.4415">
        <ele>603.5</ele>
        <time>2017-06-02T03:47:40Z</time>
      </trkpt>
      <trkpt lat="43.5801" lon="6.4413">
        <ele>604.4</ele>
        <time>2017-06-02T03:47:40Z</time>
      </trkpt>
      <trkpt lat="43.5801" lon="6.4413">
        <ele>604.4</ele>
        <time>2017-06-02T03:47:40Z</time>
      </trkpt>
      <trkpt lat="43.58011" lon="6.44113">
        <ele>604.6</ele>
        <time>2017-06-02T03:47:40Z</time>
      </trkpt>
      <trkpt lat="43.58011" lon="6.44113">
        <ele>604.6</ele>
        <time>2017-06-02T03:47:40Z</time>
      </trkpt>
      <trkpt lat="43.58022" lon="6.44102">
        <ele>605.9</ele>
        <time>2017-06-02T03:47:40Z</time>
      </trkpt>
      <trkpt lat="43.58022" lon="6.44102">
        <ele>605.9</ele>
        <time>2017-06-02T03:47:40Z</time>
      </trkpt>
      <trkpt lat="43.58032" lon="6.4409">
        <ele>607</ele>
        <time>2017-06-02T03:47:40Z</time>
      </trkpt>
      <trkpt lat="43.58032" lon="6.4409">
        <ele>607</ele>
        <time>2017-06-02T03:47:40Z</time>
      </trkpt>
      <trkpt lat="43.58032" lon="6.4409">
        <ele>607</ele>
        <time>2017-06-02T03:47:40Z</time>
      </trkpt>
      <trkpt lat="43.58041" lon="6.44076">
        <ele>608</ele>
        <time>2017-06-02T03:47:40Z</time>
      </trkpt>
      <trkpt lat="43.58041" lon="6.44076">
        <ele>608</ele>
        <time>2017-06-02T03:47:40Z</time>
      </trkpt>
      <trkpt lat="43.58048" lon="6.44058">
        <ele>608.8</ele>
        <time>2017-06-02T03:47:40Z</time>
      </trkpt>
      <trkpt lat="43.58048" lon="6.44058">
        <ele>608.8</ele>
        <time>2017-06-02T03:47:40Z</time>
      </trkpt>
      <trkpt lat="43.58058" lon="6.4405">
        <ele>609.7</ele>
        <time>2017-06-02T03:47:40Z</time>
      </trkpt>
      <trkpt lat="43.58058" lon="6.4405">
        <ele>609.7</ele>
        <time>2017-06-02T03:47:40Z</time>
      </trkpt>
      <trkpt lat="43.58064" lon="6.44029">
        <ele>610.3</ele>
        <time>2017-06-02T03:47:40Z</time>
      </trkpt>
      <trkpt lat="43.58067" lon="6.44015">
        <ele>610.6</ele>
        <time>2017-06-02T03:47:40Z</time>
      </trkpt>
      <trkpt lat="43.58069" lon="6.43996">
        <ele>610.8</ele>
        <time>2017-06-02T03:47:40Z</time>
      </trkpt>
      <trkpt lat="43.58072" lon="6.43979">
        <ele>610.9</ele>
        <time>2017-06-02T03:47:40Z</time>
      </trkpt>
      <trkpt lat="43.58075" lon="6.43962">
        <ele>610.9</ele>
        <time>2017-06-02T03:47:40Z</time>
      </trkpt>
      <trkpt lat="43.58077" lon="6.43948">
        <ele>611</ele>
        <time>2017-06-02T03:47:40Z</time>
      </trkpt>
      <trkpt lat="43.5808" lon="6.43934">
        <ele>611</ele>
        <time>2017-06-02T03:47:40Z</time>
      </trkpt>
      <trkpt lat="43.5808" lon="6.43934">
        <ele>611</ele>
        <time>2017-06-02T03:47:40Z</time>
      </trkpt>
      <trkpt lat="43.58082" lon="6.43912">
        <ele>610.9</ele>
        <time>2017-06-02T03:47:40Z</time>
      </trkpt>
      <trkpt lat="43.58082" lon="6.43912">
        <ele>610.9</ele>
        <time>2017-06-02T03:47:40Z</time>
      </trkpt>
      <trkpt lat="43.5809" lon="6.43894">
        <ele>611</ele>
        <time>2017-06-02T03:47:40Z</time>
      </trkpt>
      <trkpt lat="43.5809" lon="6.43894">
        <ele>611</ele>
        <time>2017-06-02T03:47:40Z</time>
      </trkpt>
      <trkpt lat="43.58094" lon="6.43875">
        <ele>610.9</ele>
        <time>2017-06-02T03:47:40Z</time>
      </trkpt>
      <trkpt lat="43.58094" lon="6.43875">
        <ele>610.9</ele>
        <time>2017-06-02T03:47:40Z</time>
      </trkpt>
      <trkpt lat="43.58098" lon="6.43853">
        <ele>610.8</ele>
        <time>2017-06-02T03:47:40Z</time>
      </trkpt>
      <trkpt lat="43.58102" lon="6.43839">
        <ele>610.8</ele>
        <time>2017-06-02T03:47:40Z</time>
      </trkpt>
      <trkpt lat="43.58107" lon="6.43818">
        <ele>610.5</ele>
        <time>2017-06-02T03:47:40Z</time>
      </trkpt>
      <trkpt lat="43.58112" lon="6.43797">
        <ele>610.2</ele>
        <time>2017-06-02T03:47:40Z</time>
      </trkpt>
      <trkpt lat="43.58112" lon="6.43797">
        <ele>610.2</ele>
        <time>2017-06-02T03:47:40Z</time>
      </trkpt>
      <trkpt lat="43.58117" lon="6.4378">
        <ele>609.9</ele>
        <time>2017-06-02T03:47:40Z</time>
      </trkpt>
      <trkpt lat="43.58117" lon="6.4378">
        <ele>609.9</ele>
        <time>2017-06-02T03:47:40Z</time>
      </trkpt>
      <trkpt lat="43.58121" lon="6.43753">
        <ele>609.4</ele>
        <time>2017-06-02T03:47:40Z</time>
      </trkpt>
      <trkpt lat="43.58121" lon="6.43753">
        <ele>609.4</ele>
        <time>2017-06-02T03:47:40Z</time>
      </trkpt>
      <trkpt lat="43.58124" lon="6.43734">
        <ele>608.7</ele>
        <time>2017-06-02T03:47:40Z</time>
      </trkpt>
      <trkpt lat="43.58124" lon="6.43734">
        <ele>608.7</ele>
        <time>2017-06-02T03:47:40Z</time>
      </trkpt>
      <trkpt lat="43.58127" lon="6.43713">
        <ele>607.8</ele>
        <time>2017-06-02T03:47:40Z</time>
      </trkpt>
      <trkpt lat="43.58127" lon="6.43713">
        <ele>607.8</ele>
        <time>2017-06-02T03:47:40Z</time>
      </trkpt>
      <trkpt lat="43.58127" lon="6.43713">
        <ele>607.8</ele>
        <time>2017-06-02T03:47:40Z</time>
      </trkpt>
      <trkpt lat="43.58128" lon="6.43687">
        <ele>606.6</ele>
        <time>2017-06-02T03:47:40Z</time>
      </trkpt>
      <trkpt lat="43.58128" lon="6.43687">
        <ele>606.6</ele>
        <time>2017-06-02T03:47:40Z</time>
      </trkpt>
      <trkpt lat="43.58127" lon="6.43667">
        <ele>605.6</ele>
        <time>2017-06-02T03:47:40Z</time>
      </trkpt>
      <trkpt lat="43.58127" lon="6.43667">
        <ele>605.6</ele>
        <time>2017-06-02T03:47:40Z</time>
      </trkpt>
      <trkpt lat="43.58126" lon="6.43651">
        <ele>604.9</ele>
        <time>2017-06-02T03:47:40Z</time>
      </trkpt>
      <trkpt lat="43.5813" lon="6.43637">
        <ele>604.4</ele>
        <time>2017-06-02T03:47:40Z</time>
      </trkpt>
      <trkpt lat="43.58132" lon="6.43623">
        <ele>603.8</ele>
        <time>2017-06-02T03:47:40Z</time>
      </trkpt>
      <trkpt lat="43.58133" lon="6.43609">
        <ele>603.1</ele>
        <time>2017-06-02T03:47:40Z</time>
      </trkpt>
      <trkpt lat="43.58133" lon="6.43609">
        <ele>603.1</ele>
        <time>2017-06-02T03:47:40Z</time>
      </trkpt>
      <trkpt lat="43.58139" lon="6.43592">
        <ele>602.4</ele>
        <time>2017-06-02T03:47:40Z</time>
      </trkpt>
      <trkpt lat="43.58139" lon="6.43592">
        <ele>602.4</ele>
        <time>2017-06-02T03:47:40Z</time>
      </trkpt>
      <trkpt lat="43.58142" lon="6.43576">
        <ele>602</ele>
        <time>2017-06-02T03:47:40Z</time>
      </trkpt>
      <trkpt lat="43.58142" lon="6.43576">
        <ele>602</ele>
        <time>2017-06-02T03:47:40Z</time>
      </trkpt>
      <trkpt lat="43.58142" lon="6.43576">
        <ele>602</ele>
        <time>2017-06-02T03:47:40Z</time>
      </trkpt>
      <trkpt lat="43.58141" lon="6.43556">
        <ele>601.9</ele>
        <time>2017-06-02T03:47:40Z</time>
      </trkpt>
      <trkpt lat="43.58141" lon="6.43556">
        <ele>601.9</ele>
        <time>2017-06-02T03:47:40Z</time>
      </trkpt>
      <trkpt lat="43.58141" lon="6.4354">
        <ele>601.8</ele>
        <time>2017-06-02T03:47:40Z</time>
      </trkpt>
      <trkpt lat="43.5814" lon="6.43526">
        <ele>601.8</ele>
        <time>2017-06-02T03:47:40Z</time>
      </trkpt>
      <trkpt lat="43.5814" lon="6.43526">
        <ele>601.8</ele>
        <time>2017-06-02T03:47:40Z</time>
      </trkpt>
      <trkpt lat="43.58137" lon="6.435">
        <ele>601.7</ele>
        <time>2017-06-02T03:47:40Z</time>
      </trkpt>
      <trkpt lat="43.58137" lon="6.435">
        <ele>601.7</ele>
        <time>2017-06-02T03:47:40Z</time>
      </trkpt>
      <trkpt lat="43.58136" lon="6.43483">
        <ele>602.3</ele>
        <time>2017-06-02T03:47:40Z</time>
      </trkpt>
      <trkpt lat="43.58136" lon="6.43483">
        <ele>602.3</ele>
        <time>2017-06-02T03:47:40Z</time>
      </trkpt>
      <trkpt lat="43.58136" lon="6.43468">
        <ele>602.8</ele>
        <time>2017-06-02T03:47:40Z</time>
      </trkpt>
      <trkpt lat="43.58136" lon="6.43468">
        <ele>602.8</ele>
        <time>2017-06-02T03:47:40Z</time>
      </trkpt>
      <trkpt lat="43.58136" lon="6.43442">
        <ele>603.7</ele>
        <time>2017-06-02T03:47:40Z</time>
      </trkpt>
      <trkpt lat="43.58136" lon="6.43442">
        <ele>603.7</ele>
        <time>2017-06-02T03:47:40Z</time>
      </trkpt>
      <trkpt lat="43.58136" lon="6.43442">
        <ele>603.7</ele>
        <time>2017-06-02T03:47:40Z</time>
      </trkpt>
      <trkpt lat="43.58135" lon="6.43416">
        <ele>604.6</ele>
        <time>2017-06-02T03:47:40Z</time>
      </trkpt>
      <trkpt lat="43.58135" lon="6.43416">
        <ele>604.6</ele>
        <time>2017-06-02T03:47:40Z</time>
      </trkpt>
      <trkpt lat="43.58141" lon="6.43398">
        <ele>604.9</ele>
        <time>2017-06-02T03:47:40Z</time>
      </trkpt>
      <trkpt lat="43.58141" lon="6.43398">
        <ele>604.9</ele>
        <time>2017-06-02T03:47:40Z</time>
      </trkpt>
      <trkpt lat="43.58147" lon="6.43381">
        <ele>605.3</ele>
        <time>2017-06-02T03:47:40Z</time>
      </trkpt>
      <trkpt lat="43.58147" lon="6.43381">
        <ele>605.3</ele>
        <time>2017-06-02T03:47:40Z</time>
      </trkpt>
      <trkpt lat="43.58153" lon="6.43369">
        <ele>605.7</ele>
        <time>2017-06-02T03:47:40Z</time>
      </trkpt>
      <trkpt lat="43.58153" lon="6.43369">
        <ele>605.7</ele>
        <time>2017-06-02T03:47:40Z</time>
      </trkpt>
      <trkpt lat="43.58157" lon="6.43352">
        <ele>606.2</ele>
        <time>2017-06-02T03:47:40Z</time>
      </trkpt>
      <trkpt lat="43.58157" lon="6.43352">
        <ele>606.2</ele>
        <time>2017-06-02T03:47:40Z</time>
      </trkpt>
      <trkpt lat="43.58165" lon="6.43338">
        <ele>606.8</ele>
        <time>2017-06-02T03:47:40Z</time>
      </trkpt>
      <trkpt lat="43.58165" lon="6.43338">
        <ele>606.8</ele>
        <time>2017-06-02T03:47:40Z</time>
      </trkpt>
      <trkpt lat="43.5817" lon="6.43323">
        <ele>607.4</ele>
        <time>2017-06-02T03:47:40Z</time>
      </trkpt>
      <trkpt lat="43.5817" lon="6.43323">
        <ele>607.4</ele>
        <time>2017-06-02T03:47:40Z</time>
      </trkpt>
      <trkpt lat="43.58173" lon="6.43308">
        <ele>607.7</ele>
        <time>2017-06-02T03:47:40Z</time>
      </trkpt>
      <trkpt lat="43.58173" lon="6.43308">
        <ele>607.7</ele>
        <time>2017-06-02T03:47:40Z</time>
      </trkpt>
      <trkpt lat="43.5818" lon="6.43296">
        <ele>608.2</ele>
        <time>2017-06-02T03:47:40Z</time>
      </trkpt>
      <trkpt lat="43.5818" lon="6.43296">
        <ele>608.2</ele>
        <time>2017-06-02T03:47:40Z</time>
      </trkpt>
      <trkpt lat="43.58189" lon="6.43272">
        <ele>609</ele>
        <time>2017-06-02T03:47:40Z</time>
      </trkpt>
      <trkpt lat="43.58189" lon="6.43272">
        <ele>609</ele>
        <time>2017-06-02T03:47:40Z</time>
      </trkpt>
      <trkpt lat="43.58192" lon="6.43254">
        <ele>609.5</ele>
        <time>2017-06-02T03:47:40Z</time>
      </trkpt>
      <trkpt lat="43.58192" lon="6.43254">
        <ele>609.5</ele>
        <time>2017-06-02T03:47:40Z</time>
      </trkpt>
      <trkpt lat="43.58192" lon="6.43254">
        <ele>609.5</ele>
        <time>2017-06-02T03:47:40Z</time>
      </trkpt>
      <trkpt lat="43.58198" lon="6.4324">
        <ele>609.3</ele>
        <time>2017-06-02T03:47:40Z</time>
      </trkpt>
      <trkpt lat="43.58198" lon="6.4324">
        <ele>609.3</ele>
        <time>2017-06-02T03:47:40Z</time>
      </trkpt>
      <trkpt lat="43.58201" lon="6.43224">
        <ele>608.8</ele>
        <time>2017-06-02T03:47:40Z</time>
      </trkpt>
      <trkpt lat="43.58201" lon="6.43224">
        <ele>608.8</ele>
        <time>2017-06-02T03:47:40Z</time>
      </trkpt>
      <trkpt lat="43.58207" lon="6.43212">
        <ele>608.3</ele>
        <time>2017-06-02T03:47:40Z</time>
      </trkpt>
      <trkpt lat="43.58207" lon="6.43212">
        <ele>608.3</ele>
        <time>2017-06-02T03:47:40Z</time>
      </trkpt>
      <trkpt lat="43.58207" lon="6.43212">
        <ele>608.3</ele>
        <time>2017-06-02T03:47:40Z</time>
      </trkpt>
      <trkpt lat="43.58215" lon="6.43197">
        <ele>607.9</ele>
        <time>2017-06-02T03:47:40Z</time>
      </trkpt>
      <trkpt lat="43.58215" lon="6.43197">
        <ele>607.9</ele>
        <time>2017-06-02T03:47:40Z</time>
      </trkpt>
      <trkpt lat="43.58215" lon="6.43197">
        <ele>607.9</ele>
        <time>2017-06-02T03:47:40Z</time>
      </trkpt>
      <trkpt lat="43.58225" lon="6.43176">
        <ele>607.1</ele>
        <time>2017-06-02T03:47:40Z</time>
      </trkpt>
      <trkpt lat="43.58225" lon="6.43176">
        <ele>607.1</ele>
        <time>2017-06-02T03:47:40Z</time>
      </trkpt>
      <trkpt lat="43.58225" lon="6.43176">
        <ele>607.1</ele>
        <time>2017-06-02T03:47:40Z</time>
      </trkpt>
      <trkpt lat="43.58232" lon="6.43152">
        <ele>604.5</ele>
        <time>2017-06-02T03:47:40Z</time>
      </trkpt>
      <trkpt lat="43.58232" lon="6.43152">
        <ele>604.5</ele>
        <time>2017-06-02T03:47:40Z</time>
      </trkpt>
      <trkpt lat="43.58244" lon="6.43143">
        <ele>603.3</ele>
        <time>2017-06-02T03:47:40Z</time>
      </trkpt>
      <trkpt lat="43.58244" lon="6.43143">
        <ele>603.3</ele>
        <time>2017-06-02T03:47:40Z</time>
      </trkpt>
      <trkpt lat="43.5826" lon="6.43138">
        <ele>602.5</ele>
        <time>2017-06-02T03:47:40Z</time>
      </trkpt>
      <trkpt lat="43.5826" lon="6.43138">
        <ele>602.5</ele>
        <time>2017-06-02T03:47:40Z</time>
      </trkpt>
      <trkpt lat="43.58281" lon="6.43135">
        <ele>601.2</ele>
        <time>2017-06-02T03:47:40Z</time>
      </trkpt>
      <trkpt lat="43.58281" lon="6.43135">
        <ele>601.2</ele>
        <time>2017-06-02T03:47:40Z</time>
      </trkpt>
      <trkpt lat="43.58294" lon="6.43132">
        <ele>600.3</ele>
        <time>2017-06-02T03:47:40Z</time>
      </trkpt>
      <trkpt lat="43.58294" lon="6.43132">
        <ele>600.3</ele>
        <time>2017-06-02T03:47:40Z</time>
      </trkpt>
      <trkpt lat="43.58309" lon="6.43129">
        <ele>599.3</ele>
        <time>2017-06-02T03:47:40Z</time>
      </trkpt>
      <trkpt lat="43.58309" lon="6.43129">
        <ele>599.3</ele>
        <time>2017-06-02T03:47:40Z</time>
      </trkpt>
      <trkpt lat="43.5832" lon="6.43129">
        <ele>599</ele>
        <time>2017-06-02T03:47:40Z</time>
      </trkpt>
      <trkpt lat="43.5832" lon="6.43129">
        <ele>599</ele>
        <time>2017-06-02T03:47:40Z</time>
      </trkpt>
      <trkpt lat="43.58335" lon="6.43129">
        <ele>598.6</ele>
        <time>2017-06-02T03:47:40Z</time>
      </trkpt>
      <trkpt lat="43.58335" lon="6.43129">
        <ele>598.6</ele>
        <time>2017-06-02T03:47:40Z</time>
      </trkpt>
      <trkpt lat="43.58346" lon="6.43134">
        <ele>599.3</ele>
        <time>2017-06-02T03:47:40Z</time>
      </trkpt>
      <trkpt lat="43.58346" lon="6.43134">
        <ele>599.3</ele>
        <time>2017-06-02T03:47:40Z</time>
      </trkpt>
      <trkpt lat="43.58361" lon="6.4314">
        <ele>600.1</ele>
        <time>2017-06-02T03:47:40Z</time>
      </trkpt>
      <trkpt lat="43.58361" lon="6.4314">
        <ele>600.1</ele>
        <time>2017-06-02T03:47:40Z</time>
      </trkpt>
      <trkpt lat="43.58372" lon="6.43142">
        <ele>600.4</ele>
        <time>2017-06-02T03:47:40Z</time>
      </trkpt>
      <trkpt lat="43.58372" lon="6.43142">
        <ele>600.4</ele>
        <time>2017-06-02T03:47:40Z</time>
      </trkpt>
      <trkpt lat="43.58386" lon="6.43147">
        <ele>601</ele>
        <time>2017-06-02T03:47:40Z</time>
      </trkpt>
      <trkpt lat="43.58386" lon="6.43147">
        <ele>601</ele>
        <time>2017-06-02T03:47:40Z</time>
      </trkpt>
      <trkpt lat="43.58409" lon="6.43153">
        <ele>601.5</ele>
        <time>2017-06-02T03:47:40Z</time>
      </trkpt>
      <trkpt lat="43.58409" lon="6.43153">
        <ele>601.5</ele>
        <time>2017-06-02T03:47:40Z</time>
      </trkpt>
      <trkpt lat="43.58424" lon="6.4316">
        <ele>601.9</ele>
        <time>2017-06-02T03:47:40Z</time>
      </trkpt>
      <trkpt lat="43.58424" lon="6.4316">
        <ele>601.9</ele>
        <time>2017-06-02T03:47:40Z</time>
      </trkpt>
      <trkpt lat="43.58436" lon="6.43164">
        <ele>601.7</ele>
        <time>2017-06-02T03:47:40Z</time>
      </trkpt>
      <trkpt lat="43.58436" lon="6.43164">
        <ele>601.7</ele>
        <time>2017-06-02T03:47:40Z</time>
      </trkpt>
      <trkpt lat="43.58451" lon="6.43165">
        <ele>601.1</ele>
        <time>2017-06-02T03:47:40Z</time>
      </trkpt>
      <trkpt lat="43.58451" lon="6.43165">
        <ele>601.1</ele>
        <time>2017-06-02T03:47:40Z</time>
      </trkpt>
      <trkpt lat="43.58461" lon="6.43167">
        <ele>600.9</ele>
        <time>2017-06-02T03:47:40Z</time>
      </trkpt>
      <trkpt lat="43.58471" lon="6.43169">
        <ele>600.4</ele>
        <time>2017-06-02T03:47:40Z</time>
      </trkpt>
      <trkpt lat="43.58471" lon="6.43169">
        <ele>600.4</ele>
        <time>2017-06-02T03:47:40Z</time>
      </trkpt>
      <trkpt lat="43.58486" lon="6.4317">
        <ele>599.7</ele>
        <time>2017-06-02T03:47:40Z</time>
      </trkpt>
      <trkpt lat="43.58486" lon="6.4317">
        <ele>599.7</ele>
        <time>2017-06-02T03:47:40Z</time>
      </trkpt>
      <trkpt lat="43.58498" lon="6.43172">
        <ele>599.1</ele>
        <time>2017-06-02T03:47:40Z</time>
      </trkpt>
      <trkpt lat="43.58498" lon="6.43172">
        <ele>599.1</ele>
        <time>2017-06-02T03:47:40Z</time>
      </trkpt>
      <trkpt lat="43.58516" lon="6.43174">
        <ele>597.9</ele>
        <time>2017-06-02T03:47:40Z</time>
      </trkpt>
      <trkpt lat="43.58516" lon="6.43174">
        <ele>597.9</ele>
        <time>2017-06-02T03:47:40Z</time>
      </trkpt>
      <trkpt lat="43.58516" lon="6.43174">
        <ele>597.9</ele>
        <time>2017-06-02T03:47:40Z</time>
      </trkpt>
      <trkpt lat="43.58527" lon="6.4318">
        <ele>597.2</ele>
        <time>2017-06-02T03:47:40Z</time>
      </trkpt>
      <trkpt lat="43.58527" lon="6.4318">
        <ele>597.2</ele>
        <time>2017-06-02T03:47:40Z</time>
      </trkpt>
      <trkpt lat="43.58541" lon="6.43187">
        <ele>596.4</ele>
        <time>2017-06-02T03:47:40Z</time>
      </trkpt>
      <trkpt lat="43.58541" lon="6.43187">
        <ele>596.4</ele>
        <time>2017-06-02T03:47:40Z</time>
      </trkpt>
      <trkpt lat="43.58552" lon="6.43192">
        <ele>595.8</ele>
        <time>2017-06-02T03:47:40Z</time>
      </trkpt>
      <trkpt lat="43.58552" lon="6.43192">
        <ele>595.8</ele>
        <time>2017-06-02T03:47:40Z</time>
      </trkpt>
      <trkpt lat="43.58566" lon="6.43202">
        <ele>595.2</ele>
        <time>2017-06-02T03:47:40Z</time>
      </trkpt>
      <trkpt lat="43.58566" lon="6.43202">
        <ele>595.2</ele>
        <time>2017-06-02T03:47:40Z</time>
      </trkpt>
      <trkpt lat="43.58575" lon="6.43211">
        <ele>595</ele>
        <time>2017-06-02T03:47:40Z</time>
      </trkpt>
      <trkpt lat="43.58573" lon="6.43202">
        <ele>602</ele>
        <time>2017-06-02T07:35:28Z</time>
      </trkpt>
      <trkpt lat="43.58573" lon="6.43202">
        <ele>602</ele>
        <time>2017-06-02T07:35:29Z</time>
      </trkpt>
      <trkpt lat="43.58582" lon="6.43207">
        <ele>601.1</ele>
        <time>2017-06-02T07:35:40Z</time>
      </trkpt>
      <trkpt lat="43.5859" lon="6.43214">
        <ele>600.8</ele>
        <time>2017-06-02T07:35:49Z</time>
      </trkpt>
      <trkpt lat="43.58597" lon="6.43223">
        <ele>599.9</ele>
        <time>2017-06-02T07:36:00Z</time>
      </trkpt>
      <trkpt lat="43.58604" lon="6.43232">
        <ele>599.7</ele>
        <time>2017-06-02T07:36:12Z</time>
      </trkpt>
      <trkpt lat="43.58611" lon="6.43241">
        <ele>599.3</ele>
        <time>2017-06-02T07:36:23Z</time>
      </trkpt>
      <trkpt lat="43.58619" lon="6.43248">
        <ele>599.1</ele>
        <time>2017-06-02T07:36:34Z</time>
      </trkpt>
      <trkpt lat="43.58626" lon="6.43257">
        <ele>598.6</ele>
        <time>2017-06-02T07:36:44Z</time>
      </trkpt>
      <trkpt lat="43.58634" lon="6.43265">
        <ele>597.8</ele>
        <time>2017-06-02T07:36:54Z</time>
      </trkpt>
      <trkpt lat="43.58641" lon="6.43273">
        <ele>597.9</ele>
        <time>2017-06-02T07:37:01Z</time>
      </trkpt>
      <trkpt lat="43.58648" lon="6.43282">
        <ele>599.2</ele>
        <time>2017-06-02T07:37:09Z</time>
      </trkpt>
      <trkpt lat="43.58655" lon="6.43292">
        <ele>599.6</ele>
        <time>2017-06-02T07:37:18Z</time>
      </trkpt>
      <trkpt lat="43.58661" lon="6.43302">
        <ele>599.8</ele>
        <time>2017-06-02T07:37:25Z</time>
      </trkpt>
      <trkpt lat="43.58668" lon="6.43312">
        <ele>599.9</ele>
        <time>2017-06-02T07:37:33Z</time>
      </trkpt>
      <trkpt lat="43.58675" lon="6.43321">
        <ele>599.9</ele>
        <time>2017-06-02T07:37:42Z</time>
      </trkpt>
      <trkpt lat="43.58681" lon="6.4333">
        <ele>600.8</ele>
        <time>2017-06-02T07:39:10Z</time>
      </trkpt>
      <trkpt lat="43.58689" lon="6.43339">
        <ele>601.1</ele>
        <time>2017-06-02T07:40:09Z</time>
      </trkpt>
      <trkpt lat="43.58694" lon="6.43348">
        <ele>601</ele>
        <time>2017-06-02T07:40:18Z</time>
      </trkpt>
      <trkpt lat="43.58701" lon="6.43357">
        <ele>600.9</ele>
        <time>2017-06-02T07:40:27Z</time>
      </trkpt>
      <trkpt lat="43.58707" lon="6.43367">
        <ele>601</ele>
        <time>2017-06-02T07:40:37Z</time>
      </trkpt>
      <trkpt lat="43.58713" lon="6.43377">
        <ele>601.4</ele>
        <time>2017-06-02T07:40:46Z</time>
      </trkpt>
      <trkpt lat="43.58719" lon="6.43387">
        <ele>601.7</ele>
        <time>2017-06-02T07:40:55Z</time>
      </trkpt>
      <trkpt lat="43.58724" lon="6.43398">
        <ele>602</ele>
        <time>2017-06-02T07:41:04Z</time>
      </trkpt>
      <trkpt lat="43.58728" lon="6.43409">
        <ele>602.3</ele>
        <time>2017-06-02T07:41:13Z</time>
      </trkpt>
      <trkpt lat="43.58732" lon="6.43422">
        <ele>602.5</ele>
        <time>2017-06-02T07:41:22Z</time>
      </trkpt>
      <trkpt lat="43.58736" lon="6.43434">
        <ele>602.7</ele>
        <time>2017-06-02T07:41:31Z</time>
      </trkpt>
      <trkpt lat="43.58739" lon="6.43447">
        <ele>603</ele>
        <time>2017-06-02T07:41:40Z</time>
      </trkpt>
      <trkpt lat="43.58743" lon="6.43458">
        <ele>603.1</ele>
        <time>2017-06-02T07:41:49Z</time>
      </trkpt>
      <trkpt lat="43.58747" lon="6.43471">
        <ele>603</ele>
        <time>2017-06-02T07:41:58Z</time>
      </trkpt>
      <trkpt lat="43.58752" lon="6.43482">
        <ele>603</ele>
        <time>2017-06-02T07:42:07Z</time>
      </trkpt>
      <trkpt lat="43.58757" lon="6.43493">
        <ele>603.7</ele>
        <time>2017-06-02T07:42:16Z</time>
      </trkpt>
      <trkpt lat="43.58762" lon="6.43504">
        <ele>604.1</ele>
        <time>2017-06-02T07:42:25Z</time>
      </trkpt>
      <trkpt lat="43.58766" lon="6.43516">
        <ele>604.2</ele>
        <time>2017-06-02T07:42:34Z</time>
      </trkpt>
      <trkpt lat="43.58771" lon="6.43527">
        <ele>604.6</ele>
        <time>2017-06-02T07:42:43Z</time>
      </trkpt>
      <trkpt lat="43.58774" lon="6.4354">
        <ele>604.7</ele>
        <time>2017-06-02T07:42:52Z</time>
      </trkpt>
      <trkpt lat="43.58777" lon="6.43552">
        <ele>602.8</ele>
        <time>2017-06-02T07:43:01Z</time>
      </trkpt>
      <trkpt lat="43.5878" lon="6.43564">
        <ele>602.6</ele>
        <time>2017-06-02T07:43:13Z</time>
      </trkpt>
      <trkpt lat="43.58783" lon="6.43577">
        <ele>602.1</ele>
        <time>2017-06-02T07:43:23Z</time>
      </trkpt>
      <trkpt lat="43.58787" lon="6.43589">
        <ele>602.2</ele>
        <time>2017-06-02T07:43:34Z</time>
      </trkpt>
      <trkpt lat="43.58791" lon="6.43602">
        <ele>602</ele>
        <time>2017-06-02T07:43:45Z</time>
      </trkpt>
      <trkpt lat="43.58795" lon="6.43614">
        <ele>602</ele>
        <time>2017-06-02T07:43:55Z</time>
      </trkpt>
      <trkpt lat="43.58797" lon="6.43626">
        <ele>601.9</ele>
        <time>2017-06-02T07:44:05Z</time>
      </trkpt>
      <trkpt lat="43.588" lon="6.43639">
        <ele>602</ele>
        <time>2017-06-02T07:44:15Z</time>
      </trkpt>
      <trkpt lat="43.588" lon="6.43651">
        <ele>602.7</ele>
        <time>2017-06-02T07:44:24Z</time>
      </trkpt>
      <trkpt lat="43.58798" lon="6.43665">
        <ele>603.3</ele>
        <time>2017-06-02T07:44:33Z</time>
      </trkpt>
      <trkpt lat="43.58797" lon="6.43679">
        <ele>603.8</ele>
        <time>2017-06-02T07:44:42Z</time>
      </trkpt>
      <trkpt lat="43.58795" lon="6.43692">
        <ele>604.7</ele>
        <time>2017-06-02T07:44:51Z</time>
      </trkpt>
      <trkpt lat="43.58794" lon="6.43705">
        <ele>606.1</ele>
        <time>2017-06-02T07:44:59Z</time>
      </trkpt>
      <trkpt lat="43.58791" lon="6.43717">
        <ele>606.7</ele>
        <time>2017-06-02T07:45:07Z</time>
      </trkpt>
      <trkpt lat="43.58788" lon="6.43729">
        <ele>606.6</ele>
        <time>2017-06-02T07:45:15Z</time>
      </trkpt>
      <trkpt lat="43.58784" lon="6.43741">
        <ele>608.1</ele>
        <time>2017-06-02T07:45:23Z</time>
      </trkpt>
      <trkpt lat="43.58781" lon="6.43754">
        <ele>608.2</ele>
        <time>2017-06-02T07:45:30Z</time>
      </trkpt>
      <trkpt lat="43.58778" lon="6.43766">
        <ele>607.8</ele>
        <time>2017-06-02T07:45:38Z</time>
      </trkpt>
      <trkpt lat="43.58778" lon="6.43779">
        <ele>608.1</ele>
        <time>2017-06-02T07:45:45Z</time>
      </trkpt>
      <trkpt lat="43.58779" lon="6.43793">
        <ele>608.4</ele>
        <time>2017-06-02T07:45:54Z</time>
      </trkpt>
      <trkpt lat="43.58783" lon="6.43807">
        <ele>608</ele>
        <time>2017-06-02T07:46:02Z</time>
      </trkpt>
      <trkpt lat="43.58788" lon="6.43818">
        <ele>608.9</ele>
        <time>2017-06-02T07:46:22Z</time>
      </trkpt>
      <trkpt lat="43.58792" lon="6.4383">
        <ele>607.8</ele>
        <time>2017-06-02T07:46:32Z</time>
      </trkpt>
      <trkpt lat="43.58796" lon="6.43842">
        <ele>606.4</ele>
        <time>2017-06-02T07:46:40Z</time>
      </trkpt>
      <trkpt lat="43.58801" lon="6.43853">
        <ele>605.7</ele>
        <time>2017-06-02T07:46:48Z</time>
      </trkpt>
      <trkpt lat="43.58806" lon="6.43865">
        <ele>605.9</ele>
        <time>2017-06-02T07:46:59Z</time>
      </trkpt>
      <trkpt lat="43.58809" lon="6.43876">
        <ele>606.5</ele>
        <time>2017-06-02T07:47:08Z</time>
      </trkpt>
      <trkpt lat="43.58812" lon="6.4389">
        <ele>607.3</ele>
        <time>2017-06-02T07:47:26Z</time>
      </trkpt>
      <trkpt lat="43.58815" lon="6.43901">
        <ele>608</ele>
        <time>2017-06-02T07:47:33Z</time>
      </trkpt>
      <trkpt lat="43.58816" lon="6.43914">
        <ele>608.9</ele>
        <time>2017-06-02T07:47:41Z</time>
      </trkpt>
      <trkpt lat="43.58814" lon="6.43927">
        <ele>609.6</ele>
        <time>2017-06-02T07:47:50Z</time>
      </trkpt>
      <trkpt lat="43.58814" lon="6.4394">
        <ele>610.2</ele>
        <time>2017-06-02T07:47:58Z</time>
      </trkpt>
      <trkpt lat="43.58815" lon="6.43953">
        <ele>609.9</ele>
        <time>2017-06-02T07:48:06Z</time>
      </trkpt>
      <trkpt lat="43.58816" lon="6.43967">
        <ele>608.8</ele>
        <time>2017-06-02T07:48:16Z</time>
      </trkpt>
      <trkpt lat="43.58817" lon="6.43979">
        <ele>608.7</ele>
        <time>2017-06-02T07:48:24Z</time>
      </trkpt>
      <trkpt lat="43.58821" lon="6.43991">
        <ele>608.8</ele>
        <time>2017-06-02T07:48:31Z</time>
      </trkpt>
      <trkpt lat="43.58822" lon="6.44003">
        <ele>609.5</ele>
        <time>2017-06-02T07:48:39Z</time>
      </trkpt>
      <trkpt lat="43.58821" lon="6.44016">
        <ele>610</ele>
        <time>2017-06-02T07:48:47Z</time>
      </trkpt>
      <trkpt lat="43.58818" lon="6.44029">
        <ele>610.8</ele>
        <time>2017-06-02T07:48:56Z</time>
      </trkpt>
      <trkpt lat="43.58821" lon="6.44041">
        <ele>611</ele>
        <time>2017-06-02T07:49:04Z</time>
      </trkpt>
      <trkpt lat="43.58827" lon="6.44052">
        <ele>614.2</ele>
        <time>2017-06-02T07:50:18Z</time>
      </trkpt>
      <trkpt lat="43.58834" lon="6.44059">
        <ele>614</ele>
        <time>2017-06-02T07:50:26Z</time>
      </trkpt>
      <trkpt lat="43.58842" lon="6.44066">
        <ele>614.6</ele>
        <time>2017-06-02T07:50:34Z</time>
      </trkpt>
      <trkpt lat="43.58848" lon="6.44075">
        <ele>615.3</ele>
        <time>2017-06-02T07:50:43Z</time>
      </trkpt>
      <trkpt lat="43.58855" lon="6.44084">
        <ele>616.3</ele>
        <time>2017-06-02T07:50:52Z</time>
      </trkpt>
      <trkpt lat="43.58862" lon="6.44093">
        <ele>617.2</ele>
        <time>2017-06-02T07:51:00Z</time>
      </trkpt>
      <trkpt lat="43.58869" lon="6.44101">
        <ele>617.8</ele>
        <time>2017-06-02T07:51:09Z</time>
      </trkpt>
      <trkpt lat="43.58877" lon="6.44109">
        <ele>618.4</ele>
        <time>2017-06-02T07:51:19Z</time>
      </trkpt>
      <trkpt lat="43.58885" lon="6.44116">
        <ele>619.5</ele>
        <time>2017-06-02T07:51:29Z</time>
      </trkpt>
      <trkpt lat="43.58894" lon="6.44121">
        <ele>620.1</ele>
        <time>2017-06-02T07:51:40Z</time>
      </trkpt>
      <trkpt lat="43.58902" lon="6.44127">
        <ele>620.9</ele>
        <time>2017-06-02T07:51:50Z</time>
      </trkpt>
      <trkpt lat="43.58911" lon="6.44131">
        <ele>622.1</ele>
        <time>2017-06-02T07:52:00Z</time>
      </trkpt>
      <trkpt lat="43.5892" lon="6.44134">
        <ele>622.9</ele>
        <time>2017-06-02T07:52:11Z</time>
      </trkpt>
      <trkpt lat="43.58929" lon="6.44138">
        <ele>623.7</ele>
        <time>2017-06-02T07:52:21Z</time>
      </trkpt>
      <trkpt lat="43.58939" lon="6.44142">
        <ele>624.2</ele>
        <time>2017-06-02T07:52:31Z</time>
      </trkpt>
      <trkpt lat="43.58948" lon="6.44145">
        <ele>625</ele>
        <time>2017-06-02T07:52:41Z</time>
      </trkpt>
      <trkpt lat="43.58958" lon="6.44149">
        <ele>625.4</ele>
        <time>2017-06-02T07:52:51Z</time>
      </trkpt>
      <trkpt lat="43.58967" lon="6.44152">
        <ele>626.1</ele>
        <time>2017-06-02T07:53:00Z</time>
      </trkpt>
      <trkpt lat="43.58977" lon="6.44157">
        <ele>626.4</ele>
        <time>2017-06-02T07:53:10Z</time>
      </trkpt>
      <trkpt lat="43.58986" lon="6.4416">
        <ele>626.6</ele>
        <time>2017-06-02T07:53:19Z</time>
      </trkpt>
      <trkpt lat="43.58995" lon="6.44164">
        <ele>627</ele>
        <time>2017-06-02T07:53:29Z</time>
      </trkpt>
      <trkpt lat="43.59004" lon="6.44166">
        <ele>626.9</ele>
        <time>2017-06-02T07:53:40Z</time>
      </trkpt>
      <trkpt lat="43.59014" lon="6.44167">
        <ele>626.7</ele>
        <time>2017-06-02T07:53:49Z</time>
      </trkpt>
      <trkpt lat="43.59023" lon="6.4417">
        <ele>626.8</ele>
        <time>2017-06-02T07:53:58Z</time>
      </trkpt>
      <trkpt lat="43.59032" lon="6.44174">
        <ele>626.3</ele>
        <time>2017-06-02T07:54:08Z</time>
      </trkpt>
      <trkpt lat="43.5904" lon="6.4418">
        <ele>626.7</ele>
        <time>2017-06-02T07:54:17Z</time>
      </trkpt>
      <trkpt lat="43.5905" lon="6.44182">
        <ele>626.9</ele>
        <time>2017-06-02T07:54:28Z</time>
      </trkpt>
      <trkpt lat="43.59059" lon="6.44185">
        <ele>627</ele>
        <time>2017-06-02T07:54:36Z</time>
      </trkpt>
      <trkpt lat="43.59066" lon="6.44194">
        <ele>626.9</ele>
        <time>2017-06-02T07:54:45Z</time>
      </trkpt>
      <trkpt lat="43.59073" lon="6.44203">
        <ele>626.6</ele>
        <time>2017-06-02T07:54:53Z</time>
      </trkpt>
      <trkpt lat="43.59078" lon="6.44214">
        <ele>626.2</ele>
        <time>2017-06-02T07:55:01Z</time>
      </trkpt>
      <trkpt lat="43.59081" lon="6.44227">
        <ele>625.6</ele>
        <time>2017-06-02T07:55:10Z</time>
      </trkpt>
      <trkpt lat="43.59084" lon="6.4424">
        <ele>624.8</ele>
        <time>2017-06-02T07:55:19Z</time>
      </trkpt>
      <trkpt lat="43.59085" lon="6.44253">
        <ele>624.4</ele>
        <time>2017-06-02T07:55:29Z</time>
      </trkpt>
      <trkpt lat="43.59088" lon="6.44265">
        <ele>623.6</ele>
        <time>2017-06-02T07:55:42Z</time>
      </trkpt>
      <trkpt lat="43.59092" lon="6.44277">
        <ele>622.6</ele>
        <time>2017-06-02T07:55:52Z</time>
      </trkpt>
      <trkpt lat="43.59096" lon="6.44288">
        <ele>621.4</ele>
        <time>2017-06-02T07:56:01Z</time>
      </trkpt>
      <trkpt lat="43.591" lon="6.44299">
        <ele>620.9</ele>
        <time>2017-06-02T07:56:10Z</time>
      </trkpt>
      <trkpt lat="43.59101" lon="6.44313">
        <ele>620</ele>
        <time>2017-06-02T07:56:19Z</time>
      </trkpt>
      <trkpt lat="43.59102" lon="6.44325">
        <ele>618.8</ele>
        <time>2017-06-02T07:56:28Z</time>
      </trkpt>
      <trkpt lat="43.59105" lon="6.44338">
        <ele>617.8</ele>
        <time>2017-06-02T07:56:37Z</time>
      </trkpt>
      <trkpt lat="43.59108" lon="6.44351">
        <ele>617.5</ele>
        <time>2017-06-02T07:56:46Z</time>
      </trkpt>
      <trkpt lat="43.59112" lon="6.44363">
        <ele>617.1</ele>
        <time>2017-06-02T07:56:55Z</time>
      </trkpt>
      <trkpt lat="43.59116" lon="6.44375">
        <ele>616.6</ele>
        <time>2017-06-02T07:57:04Z</time>
      </trkpt>
      <trkpt lat="43.59121" lon="6.44386">
        <ele>616.1</ele>
        <time>2017-06-02T07:57:13Z</time>
      </trkpt>
      <trkpt lat="43.59127" lon="6.44397">
        <ele>615.2</ele>
        <time>2017-06-02T07:57:22Z</time>
      </trkpt>
      <trkpt lat="43.59133" lon="6.44408">
        <ele>614.5</ele>
        <time>2017-06-02T07:57:31Z</time>
      </trkpt>
      <trkpt lat="43.59138" lon="6.44418">
        <ele>614.2</ele>
        <time>2017-06-02T07:57:39Z</time>
      </trkpt>
      <trkpt lat="43.59142" lon="6.44431">
        <ele>614.1</ele>
        <time>2017-06-02T07:57:48Z</time>
      </trkpt>
      <trkpt lat="43.59145" lon="6.44443">
        <ele>613.8</ele>
        <time>2017-06-02T07:57:56Z</time>
      </trkpt>
      <trkpt lat="43.59149" lon="6.44455">
        <ele>613.9</ele>
        <time>2017-06-02T07:58:05Z</time>
      </trkpt>
      <trkpt lat="43.59153" lon="6.44466">
        <ele>613.5</ele>
        <time>2017-06-02T07:58:14Z</time>
      </trkpt>
      <trkpt lat="43.59156" lon="6.44479">
        <ele>613</ele>
        <time>2017-06-02T07:58:24Z</time>
      </trkpt>
      <trkpt lat="43.59157" lon="6.44492">
        <ele>611.2</ele>
        <time>2017-06-02T07:58:33Z</time>
      </trkpt>
      <trkpt lat="43.59158" lon="6.44505">
        <ele>610.2</ele>
        <time>2017-06-02T07:58:46Z</time>
      </trkpt>
      <trkpt lat="43.59153" lon="6.44516">
        <ele>610.8</ele>
        <time>2017-06-02T08:00:19Z</time>
      </trkpt>
      <trkpt lat="43.59145" lon="6.44523">
        <ele>610.5</ele>
        <time>2017-06-02T08:00:28Z</time>
      </trkpt>
      <trkpt lat="43.59137" lon="6.4453">
        <ele>611</ele>
        <time>2017-06-02T08:00:43Z</time>
      </trkpt>
      <trkpt lat="43.5913" lon="6.44537">
        <ele>612.3</ele>
        <time>2017-06-02T08:00:52Z</time>
      </trkpt>
      <trkpt lat="43.59122" lon="6.44546">
        <ele>612.6</ele>
        <time>2017-06-02T08:01:02Z</time>
      </trkpt>
      <trkpt lat="43.59116" lon="6.44556">
        <ele>612.7</ele>
        <time>2017-06-02T08:01:12Z</time>
      </trkpt>
      <trkpt lat="43.59109" lon="6.44566">
        <ele>612.1</ele>
        <time>2017-06-02T08:01:21Z</time>
      </trkpt>
      <trkpt lat="43.59104" lon="6.44577">
        <ele>611.1</ele>
        <time>2017-06-02T08:01:30Z</time>
      </trkpt>
      <trkpt lat="43.59099" lon="6.44588">
        <ele>610.6</ele>
        <time>2017-06-02T08:01:38Z</time>
      </trkpt>
      <trkpt lat="43.59095" lon="6.44601">
        <ele>609.6</ele>
        <time>2017-06-02T08:01:46Z</time>
      </trkpt>
      <trkpt lat="43.59092" lon="6.44613">
        <ele>609.1</ele>
        <time>2017-06-02T08:01:54Z</time>
      </trkpt>
      <trkpt lat="43.59091" lon="6.44626">
        <ele>609</ele>
        <time>2017-06-02T08:02:01Z</time>
      </trkpt>
      <trkpt lat="43.59089" lon="6.4464">
        <ele>608.1</ele>
        <time>2017-06-02T08:02:11Z</time>
      </trkpt>
      <trkpt lat="43.59089" lon="6.44654">
        <ele>607.4</ele>
        <time>2017-06-02T08:02:19Z</time>
      </trkpt>
      <trkpt lat="43.59088" lon="6.44667">
        <ele>606.8</ele>
        <time>2017-06-02T08:02:28Z</time>
      </trkpt>
      <trkpt lat="43.59088" lon="6.4468">
        <ele>605.6</ele>
        <time>2017-06-02T08:02:37Z</time>
      </trkpt>
      <trkpt lat="43.59085" lon="6.44693">
        <ele>604.9</ele>
        <time>2017-06-02T08:02:46Z</time>
      </trkpt>
      <trkpt lat="43.59084" lon="6.44706">
        <ele>604.1</ele>
        <time>2017-06-02T08:02:55Z</time>
      </trkpt>
      <trkpt lat="43.59082" lon="6.44719">
        <ele>603.6</ele>
        <time>2017-06-02T08:03:04Z</time>
      </trkpt>
      <trkpt lat="43.59079" lon="6.44731">
        <ele>602.8</ele>
        <time>2017-06-02T08:03:15Z</time>
      </trkpt>
      <trkpt lat="43.59076" lon="6.44744">
        <ele>601.9</ele>
        <time>2017-06-02T08:03:24Z</time>
      </trkpt>
      <trkpt lat="43.59071" lon="6.44755">
        <ele>600.9</ele>
        <time>2017-06-02T08:03:34Z</time>
      </trkpt>
      <trkpt lat="43.59065" lon="6.44767">
        <ele>600.5</ele>
        <time>2017-06-02T08:03:45Z</time>
      </trkpt>
      <trkpt lat="43.5906" lon="6.44777">
        <ele>599.4</ele>
        <time>2017-06-02T08:03:54Z</time>
      </trkpt>
      <trkpt lat="43.59056" lon="6.4479">
        <ele>598.8</ele>
        <time>2017-06-02T08:04:04Z</time>
      </trkpt>
      <trkpt lat="43.59054" lon="6.44803">
        <ele>597.1</ele>
        <time>2017-06-02T08:04:14Z</time>
      </trkpt>
      <trkpt lat="43.5905" lon="6.44814">
        <ele>596.1</ele>
        <time>2017-06-02T08:04:23Z</time>
      </trkpt>
      <trkpt lat="43.59045" lon="6.44825">
        <ele>595.4</ele>
        <time>2017-06-02T08:04:31Z</time>
      </trkpt>
      <trkpt lat="43.59042" lon="6.44838">
        <ele>594.7</ele>
        <time>2017-06-02T08:04:40Z</time>
      </trkpt>
      <trkpt lat="43.59036" lon="6.44848">
        <ele>594.9</ele>
        <time>2017-06-02T08:04:48Z</time>
      </trkpt>
      <trkpt lat="43.59031" lon="6.4486">
        <ele>594.6</ele>
        <time>2017-06-02T08:04:56Z</time>
      </trkpt>
      <trkpt lat="43.59027" lon="6.44872">
        <ele>594</ele>
        <time>2017-06-02T08:05:04Z</time>
      </trkpt>
      <trkpt lat="43.59023" lon="6.44883">
        <ele>593.5</ele>
        <time>2017-06-02T08:05:12Z</time>
      </trkpt>
      <trkpt lat="43.59016" lon="6.44892">
        <ele>592</ele>
        <time>2017-06-02T08:05:20Z</time>
      </trkpt>
      <trkpt lat="43.59009" lon="6.44901">
        <ele>589.6</ele>
        <time>2017-06-02T08:05:29Z</time>
      </trkpt>
      <trkpt lat="43.59" lon="6.44908">
        <ele>590.4</ele>
        <time>2017-06-02T08:05:38Z</time>
      </trkpt>
      <trkpt lat="43.58992" lon="6.44911">
        <ele>590.1</ele>
        <time>2017-06-02T08:05:47Z</time>
      </trkpt>
      <trkpt lat="43.58984" lon="6.44918">
        <ele>588.6</ele>
        <time>2017-06-02T08:05:56Z</time>
      </trkpt>
      <trkpt lat="43.58977" lon="6.44926">
        <ele>587</ele>
        <time>2017-06-02T08:06:05Z</time>
      </trkpt>
      <trkpt lat="43.58969" lon="6.44933">
        <ele>586.4</ele>
        <time>2017-06-02T08:06:13Z</time>
      </trkpt>
      <trkpt lat="43.5896" lon="6.44938">
        <ele>586.9</ele>
        <time>2017-06-02T08:06:23Z</time>
      </trkpt>
      <trkpt lat="43.58951" lon="6.44943">
        <ele>586.6</ele>
        <time>2017-06-02T08:06:32Z</time>
      </trkpt>
      <trkpt lat="43.58942" lon="6.44949">
        <ele>586.5</ele>
        <time>2017-06-02T08:06:40Z</time>
      </trkpt>
      <trkpt lat="43.58935" lon="6.44956">
        <ele>586.5</ele>
        <time>2017-06-02T08:06:48Z</time>
      </trkpt>
      <trkpt lat="43.58928" lon="6.44964">
        <ele>586.6</ele>
        <time>2017-06-02T08:06:55Z</time>
      </trkpt>
      <trkpt lat="43.5892" lon="6.44973">
        <ele>585.9</ele>
        <time>2017-06-02T08:07:04Z</time>
      </trkpt>
      <trkpt lat="43.58915" lon="6.44983">
        <ele>586</ele>
        <time>2017-06-02T08:07:13Z</time>
      </trkpt>
      <trkpt lat="43.58909" lon="6.44995">
        <ele>585.1</ele>
        <time>2017-06-02T08:07:22Z</time>
      </trkpt>
      <trkpt lat="43.58903" lon="6.45005">
        <ele>584.6</ele>
        <time>2017-06-02T08:07:31Z</time>
      </trkpt>
      <trkpt lat="43.58898" lon="6.45015">
        <ele>584.7</ele>
        <time>2017-06-02T08:07:37Z</time>
      </trkpt>
      <trkpt lat="43.58895" lon="6.45027">
        <ele>585.5</ele>
        <time>2017-06-02T08:07:45Z</time>
      </trkpt>
      <trkpt lat="43.58891" lon="6.45038">
        <ele>586.1</ele>
        <time>2017-06-02T08:07:53Z</time>
      </trkpt>
      <trkpt lat="43.5889" lon="6.45052">
        <ele>586.1</ele>
        <time>2017-06-02T08:08:02Z</time>
      </trkpt>
      <trkpt lat="43.58889" lon="6.45066">
        <ele>586.4</ele>
        <time>2017-06-02T08:08:11Z</time>
      </trkpt>
      <trkpt lat="43.5889" lon="6.45079">
        <ele>586.6</ele>
        <time>2017-06-02T08:08:20Z</time>
      </trkpt>
      <trkpt lat="43.58894" lon="6.45091">
        <ele>587.7</ele>
        <time>2017-06-02T08:08:30Z</time>
      </trkpt>
      <trkpt lat="43.58898" lon="6.45102">
        <ele>588.4</ele>
        <time>2017-06-02T08:08:39Z</time>
      </trkpt>
      <trkpt lat="43.58901" lon="6.45114">
        <ele>588.7</ele>
        <time>2017-06-02T08:08:47Z</time>
      </trkpt>
      <trkpt lat="43.58901" lon="6.45126">
        <ele>588.8</ele>
        <time>2017-06-02T08:08:55Z</time>
      </trkpt>
      <trkpt lat="43.589" lon="6.4514">
        <ele>588.6</ele>
        <time>2017-06-02T08:09:04Z</time>
      </trkpt>
      <trkpt lat="43.58899" lon="6.45153">
        <ele>588.2</ele>
        <time>2017-06-02T08:09:13Z</time>
      </trkpt>
      <trkpt lat="43.58897" lon="6.45165">
        <ele>588.1</ele>
        <time>2017-06-02T08:09:21Z</time>
      </trkpt>
      <trkpt lat="43.58893" lon="6.45178">
        <ele>588</ele>
        <time>2017-06-02T08:09:30Z</time>
      </trkpt>
      <trkpt lat="43.58888" lon="6.45189">
        <ele>587.4</ele>
        <time>2017-06-02T08:09:38Z</time>
      </trkpt>
      <trkpt lat="43.58884" lon="6.452">
        <ele>585.1</ele>
        <time>2017-06-02T08:10:02Z</time>
      </trkpt>
      <trkpt lat="43.5888" lon="6.45212">
        <ele>583.8</ele>
        <time>2017-06-02T08:10:11Z</time>
      </trkpt>
      <trkpt lat="43.58875" lon="6.45224">
        <ele>583.8</ele>
        <time>2017-06-02T08:10:22Z</time>
      </trkpt>
      <trkpt lat="43.58877" lon="6.45236">
        <ele>582.9</ele>
        <time>2017-06-02T08:13:15Z</time>
      </trkpt>
      <trkpt lat="43.58877" lon="6.4525">
        <ele>580.8</ele>
        <time>2017-06-02T08:13:25Z</time>
      </trkpt>
      <trkpt lat="43.58876" lon="6.45262">
        <ele>580.2</ele>
        <time>2017-06-02T08:13:35Z</time>
      </trkpt>
      <trkpt lat="43.58874" lon="6.45275">
        <ele>580.8</ele>
        <time>2017-06-02T08:13:45Z</time>
      </trkpt>
      <trkpt lat="43.58872" lon="6.45288">
        <ele>580.1</ele>
        <time>2017-06-02T08:13:53Z</time>
      </trkpt>
      <trkpt lat="43.58871" lon="6.45301">
        <ele>579.4</ele>
        <time>2017-06-02T08:14:03Z</time>
      </trkpt>
      <trkpt lat="43.58868" lon="6.45314">
        <ele>579.3</ele>
        <time>2017-06-02T08:14:13Z</time>
      </trkpt>
      <trkpt lat="43.58865" lon="6.45327">
        <ele>578.7</ele>
        <time>2017-06-02T08:14:22Z</time>
      </trkpt>
      <trkpt lat="43.58863" lon="6.45339">
        <ele>578.8</ele>
        <time>2017-06-02T08:14:30Z</time>
      </trkpt>
      <trkpt lat="43.5886" lon="6.45352">
        <ele>578.3</ele>
        <time>2017-06-02T08:14:38Z</time>
      </trkpt>
      <trkpt lat="43.58858" lon="6.45365">
        <ele>577.7</ele>
        <time>2017-06-02T08:14:46Z</time>
      </trkpt>
      <trkpt lat="43.58856" lon="6.45378">
        <ele>577</ele>
        <time>2017-06-02T08:14:54Z</time>
      </trkpt>
      <trkpt lat="43.58856" lon="6.45392">
        <ele>576.8</ele>
        <time>2017-06-02T08:15:02Z</time>
      </trkpt>
      <trkpt lat="43.58857" lon="6.45406">
        <ele>576.7</ele>
        <time>2017-06-02T08:15:10Z</time>
      </trkpt>
      <trkpt lat="43.5886" lon="6.45418">
        <ele>576.4</ele>
        <time>2017-06-02T08:15:18Z</time>
      </trkpt>
      <trkpt lat="43.58864" lon="6.4543">
        <ele>576.1</ele>
        <time>2017-06-02T08:15:26Z</time>
      </trkpt>
      <trkpt lat="43.58868" lon="6.45441">
        <ele>575.9</ele>
        <time>2017-06-02T08:15:34Z</time>
      </trkpt>
      <trkpt lat="43.58874" lon="6.45452">
        <ele>575.7</ele>
        <time>2017-06-02T08:15:43Z</time>
      </trkpt>
      <trkpt lat="43.58879" lon="6.45463">
        <ele>575.1</ele>
        <time>2017-06-02T08:15:51Z</time>
      </trkpt>
      <trkpt lat="43.58883" lon="6.45476">
        <ele>574.5</ele>
        <time>2017-06-02T08:16:00Z</time>
      </trkpt>
      <trkpt lat="43.58887" lon="6.45488">
        <ele>574</ele>
        <time>2017-06-02T08:16:08Z</time>
      </trkpt>
      <trkpt lat="43.58891" lon="6.455">
        <ele>573.7</ele>
        <time>2017-06-02T08:16:16Z</time>
      </trkpt>
      <trkpt lat="43.58894" lon="6.45513">
        <ele>573.3</ele>
        <time>2017-06-02T08:16:24Z</time>
      </trkpt>
      <trkpt lat="43.58896" lon="6.45525">
        <ele>572.3</ele>
        <time>2017-06-02T08:16:32Z</time>
      </trkpt>
      <trkpt lat="43.58896" lon="6.45539">
        <ele>570.5</ele>
        <time>2017-06-02T08:16:41Z</time>
      </trkpt>
      <trkpt lat="43.58895" lon="6.45552">
        <ele>568.8</ele>
        <time>2017-06-02T08:16:50Z</time>
      </trkpt>
      <trkpt lat="43.58895" lon="6.45564">
        <ele>566</ele>
        <time>2017-06-02T08:17:13Z</time>
      </trkpt>
      <trkpt lat="43.58903" lon="6.45558">
        <ele>567.7</ele>
        <time>2017-06-02T08:18:03Z</time>
      </trkpt>
      <trkpt lat="43.58913" lon="6.45557">
        <ele>567.2</ele>
        <time>2017-06-02T08:18:34Z</time>
      </trkpt>
      <trkpt lat="43.58922" lon="6.45559">
        <ele>566.6</ele>
        <time>2017-06-02T08:18:51Z</time>
      </trkpt>
      <trkpt lat="43.5893" lon="6.45565">
        <ele>565.5</ele>
        <time>2017-06-02T08:19:04Z</time>
      </trkpt>
      <trkpt lat="43.58939" lon="6.4557">
        <ele>563.3</ele>
        <time>2017-06-02T08:19:18Z</time>
      </trkpt>
      <trkpt lat="43.58949" lon="6.45569">
        <ele>562.7</ele>
        <time>2017-06-02T08:19:30Z</time>
      </trkpt>
      <trkpt lat="43.58958" lon="6.45569">
        <ele>561.3</ele>
        <time>2017-06-02T08:19:42Z</time>
      </trkpt>
      <trkpt lat="43.58967" lon="6.45567">
        <ele>559.5</ele>
        <time>2017-06-02T08:19:53Z</time>
      </trkpt>
      <trkpt lat="43.58976" lon="6.45566">
        <ele>555.4</ele>
        <time>2017-06-02T08:20:15Z</time>
      </trkpt>
      <trkpt lat="43.58985" lon="6.45562">
        <ele>553.7</ele>
        <time>2017-06-02T08:20:36Z</time>
      </trkpt>
      <trkpt lat="43.5899" lon="6.45572">
        <ele>552</ele>
        <time>2017-06-02T08:20:54Z</time>
      </trkpt>
      <trkpt lat="43.58999" lon="6.45573">
        <ele>550.3</ele>
        <time>2017-06-02T08:21:17Z</time>
      </trkpt>
      <trkpt lat="43.59008" lon="6.45569">
        <ele>548.1</ele>
        <time>2017-06-02T08:21:35Z</time>
      </trkpt>
      <trkpt lat="43.59015" lon="6.45559">
        <ele>544.5</ele>
        <time>2017-06-02T08:22:05Z</time>
      </trkpt>
      <trkpt lat="43.59023" lon="6.45564">
        <ele>546.1</ele>
        <time>2017-06-02T08:22:25Z</time>
      </trkpt>
      <trkpt lat="43.59031" lon="6.45572">
        <ele>543.9</ele>
        <time>2017-06-02T08:22:37Z</time>
      </trkpt>
      <trkpt lat="43.5904" lon="6.45567">
        <ele>542</ele>
        <time>2017-06-02T08:22:57Z</time>
      </trkpt>
      <trkpt lat="43.59049" lon="6.45569">
        <ele>540.5</ele>
        <time>2017-06-02T08:23:14Z</time>
      </trkpt>
      <trkpt lat="43.59059" lon="6.4557">
        <ele>540.1</ele>
        <time>2017-06-02T08:23:26Z</time>
      </trkpt>
      <trkpt lat="43.59069" lon="6.45569">
        <ele>537.5</ele>
        <time>2017-06-02T08:23:55Z</time>
      </trkpt>
      <trkpt lat="43.59066" lon="6.45557">
        <ele>535.1</ele>
        <time>2017-06-02T08:24:14Z</time>
      </trkpt>
      <trkpt lat="43.5906" lon="6.45547">
        <ele>533.3</ele>
        <time>2017-06-02T08:24:28Z</time>
      </trkpt>
      <trkpt lat="43.59054" lon="6.45537">
        <ele>531.9</ele>
        <time>2017-06-02T08:24:40Z</time>
      </trkpt>
      <trkpt lat="43.59047" lon="6.45527">
        <ele>531.4</ele>
        <time>2017-06-02T08:24:54Z</time>
      </trkpt>
      <trkpt lat="43.5905" lon="6.45515">
        <ele>529.4</ele>
        <time>2017-06-02T08:25:10Z</time>
      </trkpt>
      <trkpt lat="43.59056" lon="6.45505">
        <ele>528.3</ele>
        <time>2017-06-02T08:25:26Z</time>
      </trkpt>
      <trkpt lat="43.59064" lon="6.45498">
        <ele>528</ele>
        <time>2017-06-02T08:25:37Z</time>
      </trkpt>
      <trkpt lat="43.59071" lon="6.4549">
        <ele>527.7</ele>
        <time>2017-06-02T08:25:47Z</time>
      </trkpt>
      <trkpt lat="43.59077" lon="6.4548">
        <ele>528.1</ele>
        <time>2017-06-02T08:25:56Z</time>
      </trkpt>
      <trkpt lat="43.59083" lon="6.4547">
        <ele>529.6</ele>
        <time>2017-06-02T08:26:07Z</time>
      </trkpt>
      <trkpt lat="43.59087" lon="6.45458">
        <ele>527.5</ele>
        <time>2017-06-02T08:26:19Z</time>
      </trkpt>
      <trkpt lat="43.5909" lon="6.45446">
        <ele>526.1</ele>
        <time>2017-06-02T08:26:30Z</time>
      </trkpt>
      <trkpt lat="43.59094" lon="6.45434">
        <ele>525</ele>
        <time>2017-06-02T08:26:39Z</time>
      </trkpt>
      <trkpt lat="43.59094" lon="6.45421">
        <ele>524.4</ele>
        <time>2017-06-02T08:26:51Z</time>
      </trkpt>
      <trkpt lat="43.59094" lon="6.45408">
        <ele>523.8</ele>
        <time>2017-06-02T08:27:02Z</time>
      </trkpt>
      <trkpt lat="43.59094" lon="6.45395">
        <ele>523</ele>
        <time>2017-06-02T08:27:12Z</time>
      </trkpt>
      <trkpt lat="43.59093" lon="6.45382">
        <ele>522.6</ele>
        <time>2017-06-02T08:27:23Z</time>
      </trkpt>
      <trkpt lat="43.59094" lon="6.45369">
        <ele>521.1</ele>
        <time>2017-06-02T08:27:38Z</time>
      </trkpt>
      <trkpt lat="43.59092" lon="6.45357">
        <ele>518.4</ele>
        <time>2017-06-02T08:28:01Z</time>
      </trkpt>
      <trkpt lat="43.59091" lon="6.45344">
        <ele>517.2</ele>
        <time>2017-06-02T08:28:16Z</time>
      </trkpt>
      <trkpt lat="43.59094" lon="6.45332">
        <ele>516.4</ele>
        <time>2017-06-02T08:28:27Z</time>
      </trkpt>
      <trkpt lat="43.59095" lon="6.45319">
        <ele>516.6</ele>
        <time>2017-06-02T08:28:40Z</time>
      </trkpt>
      <trkpt lat="43.59098" lon="6.45307">
        <ele>516</ele>
        <time>2017-06-02T08:28:55Z</time>
      </trkpt>
      <trkpt lat="43.59102" lon="6.45296">
        <ele>514.9</ele>
        <time>2017-06-02T08:29:04Z</time>
      </trkpt>
      <trkpt lat="43.59107" lon="6.45284">
        <ele>512.8</ele>
        <time>2017-06-02T08:29:16Z</time>
      </trkpt>
      <trkpt lat="43.5911" lon="6.45272">
        <ele>512.6</ele>
        <time>2017-06-02T08:29:25Z</time>
      </trkpt>
      <trkpt lat="43.59115" lon="6.45261">
        <ele>512.7</ele>
        <time>2017-06-02T08:29:35Z</time>
      </trkpt>
      <trkpt lat="43.59119" lon="6.45249">
        <ele>510.8</ele>
        <time>2017-06-02T08:29:47Z</time>
      </trkpt>
      <trkpt lat="43.59122" lon="6.45236">
        <ele>510.3</ele>
        <time>2017-06-02T08:29:56Z</time>
      </trkpt>
      <trkpt lat="43.59121" lon="6.45224">
        <ele>509</ele>
        <time>2017-06-02T08:30:15Z</time>
      </trkpt>
      <trkpt lat="43.59119" lon="6.45211">
        <ele>508.5</ele>
        <time>2017-06-02T08:30:28Z</time>
      </trkpt>
      <trkpt lat="43.59119" lon="6.45198">
        <ele>507.1</ele>
        <time>2017-06-02T08:30:41Z</time>
      </trkpt>
      <trkpt lat="43.59127" lon="6.45205">
        <ele>504.3</ele>
        <time>2017-06-02T08:31:29Z</time>
      </trkpt>
      <trkpt lat="43.59134" lon="6.45196">
        <ele>502</ele>
        <time>2017-06-02T08:31:50Z</time>
      </trkpt>
      <trkpt lat="43.59141" lon="6.45187">
        <ele>502.6</ele>
        <time>2017-06-02T08:32:04Z</time>
      </trkpt>
      <trkpt lat="43.59145" lon="6.45199">
        <ele>499.4</ele>
        <time>2017-06-02T08:32:30Z</time>
      </trkpt>
      <trkpt lat="43.59154" lon="6.45194">
        <ele>498.3</ele>
        <time>2017-06-02T08:33:04Z</time>
      </trkpt>
      <trkpt lat="43.5916" lon="6.45185">
        <ele>496.9</ele>
        <time>2017-06-02T08:33:20Z</time>
      </trkpt>
      <trkpt lat="43.59163" lon="6.45198">
        <ele>492.7</ele>
        <time>2017-06-02T08:33:52Z</time>
      </trkpt>
      <trkpt lat="43.59165" lon="6.4521">
        <ele>491.3</ele>
        <time>2017-06-02T08:34:03Z</time>
      </trkpt>
      <trkpt lat="43.59174" lon="6.45214">
        <ele>488.9</ele>
        <time>2017-06-02T08:34:18Z</time>
      </trkpt>
      <trkpt lat="43.59183" lon="6.45217">
        <ele>488.2</ele>
        <time>2017-06-02T08:34:36Z</time>
      </trkpt>
      <trkpt lat="43.59191" lon="6.45225">
        <ele>486.1</ele>
        <time>2017-06-02T08:34:51Z</time>
      </trkpt>
      <trkpt lat="43.59195" lon="6.45236">
        <ele>484.4</ele>
        <time>2017-06-02T08:35:06Z</time>
      </trkpt>
      <trkpt lat="43.59201" lon="6.45245">
        <ele>483.1</ele>
        <time>2017-06-02T08:35:19Z</time>
      </trkpt>
      <trkpt lat="43.59207" lon="6.45255">
        <ele>482.5</ele>
        <time>2017-06-02T08:35:32Z</time>
      </trkpt>
      <trkpt lat="43.59214" lon="6.45247">
        <ele>479.2</ele>
        <time>2017-06-02T08:35:53Z</time>
      </trkpt>
      <trkpt lat="43.59217" lon="6.45235">
        <ele>471</ele>
        <time>2017-06-02T08:36:08Z</time>
      </trkpt>
      <trkpt lat="43.59226" lon="6.4524">
        <ele>473.4</ele>
        <time>2017-06-02T08:36:31Z</time>
      </trkpt>
      <trkpt lat="43.5923" lon="6.45251">
        <ele>471.4</ele>
        <time>2017-06-02T08:36:46Z</time>
      </trkpt>
      <trkpt lat="43.59239" lon="6.45256">
        <ele>469.7</ele>
        <time>2017-06-02T08:37:07Z</time>
      </trkpt>
      <trkpt lat="43.59248" lon="6.45258">
        <ele>469.6</ele>
        <time>2017-06-02T08:37:18Z</time>
      </trkpt>
      <trkpt lat="43.59256" lon="6.45264">
        <ele>468</ele>
        <time>2017-06-02T08:37:30Z</time>
      </trkpt>
      <trkpt lat="43.59266" lon="6.45264">
        <ele>467.3</ele>
        <time>2017-06-02T08:37:45Z</time>
      </trkpt>
      <trkpt lat="43.59275" lon="6.45265">
        <ele>465.7</ele>
        <time>2017-06-02T08:37:58Z</time>
      </trkpt>
      <trkpt lat="43.59283" lon="6.45258">
        <ele>464</ele>
        <time>2017-06-02T08:38:11Z</time>
      </trkpt>
      <trkpt lat="43.59291" lon="6.4525">
        <ele>463.3</ele>
        <time>2017-06-02T08:38:34Z</time>
      </trkpt>
      <trkpt lat="43.59295" lon="6.45238">
        <ele>462.4</ele>
        <time>2017-06-02T08:38:47Z</time>
      </trkpt>
      <trkpt lat="43.59293" lon="6.45225">
        <ele>460.5</ele>
        <time>2017-06-02T08:39:25Z</time>
      </trkpt>
      <trkpt lat="43.59302" lon="6.45219">
        <ele>459.1</ele>
        <time>2017-06-02T08:39:43Z</time>
      </trkpt>
      <trkpt lat="43.5931" lon="6.45224">
        <ele>456.8</ele>
        <time>2017-06-02T08:40:00Z</time>
      </trkpt>
      <trkpt lat="43.59318" lon="6.45233">
        <ele>454.5</ele>
        <time>2017-06-02T08:40:15Z</time>
      </trkpt>
      <trkpt lat="43.59328" lon="6.45235">
        <ele>452.7</ele>
        <time>2017-06-02T08:40:31Z</time>
      </trkpt>
      <trkpt lat="43.59334" lon="6.45245">
        <ele>452</ele>
        <time>2017-06-02T08:40:41Z</time>
      </trkpt>
      <trkpt lat="43.5934" lon="6.45254">
        <ele>452.3</ele>
        <time>2017-06-02T08:41:22Z</time>
      </trkpt>
      <trkpt lat="43.59344" lon="6.45266">
        <ele>450.7</ele>
        <time>2017-06-02T08:41:53Z</time>
      </trkpt>
      <trkpt lat="43.59353" lon="6.45261">
        <ele>449.5</ele>
        <time>2017-06-02T08:42:10Z</time>
      </trkpt>
      <trkpt lat="43.59344" lon="6.45261">
        <ele>449.2</ele>
        <time>2017-06-02T08:42:54Z</time>
      </trkpt>
      <trkpt lat="43.59335" lon="6.45259">
        <ele>450.5</ele>
        <time>2017-06-02T08:43:09Z</time>
      </trkpt>
      <trkpt lat="43.59344" lon="6.45254">
        <ele>450.4</ele>
        <time>2017-06-02T08:43:54Z</time>
      </trkpt>
      <trkpt lat="43.59353" lon="6.45259">
        <ele>450</ele>
        <time>2017-06-02T08:44:02Z</time>
      </trkpt>
      <trkpt lat="43.59362" lon="6.45265">
        <ele>449.1</ele>
        <time>2017-06-02T08:44:11Z</time>
      </trkpt>
      <trkpt lat="43.59353" lon="6.45262">
        <ele>448</ele>
        <time>2017-06-02T08:45:08Z</time>
      </trkpt>
      <trkpt lat="43.59362" lon="6.4526">
        <ele>450.1</ele>
        <time>2017-06-02T08:46:27Z</time>
      </trkpt>
      <trkpt lat="43.5937" lon="6.45253">
        <ele>446.1</ele>
        <time>2017-06-02T08:48:36Z</time>
      </trkpt>
      <trkpt lat="43.59372" lon="6.45241">
        <ele>449.4</ele>
        <time>2017-06-02T08:50:05Z</time>
      </trkpt>
      <trkpt lat="43.59371" lon="6.45228">
        <ele>448.5</ele>
        <time>2017-06-02T08:50:30Z</time>
      </trkpt>
      <trkpt lat="43.59373" lon="6.45216">
        <ele>448</ele>
        <time>2017-06-02T08:50:47Z</time>
      </trkpt>
      <trkpt lat="43.5937" lon="6.45204">
        <ele>448.2</ele>
        <time>2017-06-02T08:51:01Z</time>
      </trkpt>
      <trkpt lat="43.59373" lon="6.45192">
        <ele>448.3</ele>
        <time>2017-06-02T08:51:14Z</time>
      </trkpt>
      <trkpt lat="43.59378" lon="6.45181">
        <ele>448.1</ele>
        <time>2017-06-02T08:51:25Z</time>
      </trkpt>
      <trkpt lat="43.59382" lon="6.4517">
        <ele>446.7</ele>
        <time>2017-06-02T08:51:36Z</time>
      </trkpt>
      <trkpt lat="43.59388" lon="6.45159">
        <ele>443.9</ele>
        <time>2017-06-02T08:51:53Z</time>
      </trkpt>
      <trkpt lat="43.59395" lon="6.45149">
        <ele>441.8</ele>
        <time>2017-06-02T08:52:02Z</time>
      </trkpt>
      <trkpt lat="43.59402" lon="6.4514">
        <ele>441</ele>
        <time>2017-06-02T08:52:12Z</time>
      </trkpt>
      <trkpt lat="43.59409" lon="6.45131">
        <ele>440.3</ele>
        <time>2017-06-02T08:52:21Z</time>
      </trkpt>
      <trkpt lat="43.59417" lon="6.45124">
        <ele>439.8</ele>
        <time>2017-06-02T08:52:30Z</time>
      </trkpt>
      <trkpt lat="43.59424" lon="6.45115">
        <ele>438.4</ele>
        <time>2017-06-02T08:52:41Z</time>
      </trkpt>
      <trkpt lat="43.59424" lon="6.45128">
        <ele>437.9</ele>
        <time>2017-06-02T08:53:01Z</time>
      </trkpt>
      <trkpt lat="43.59419" lon="6.45139">
        <ele>435.5</ele>
        <time>2017-06-02T08:53:17Z</time>
      </trkpt>
      <trkpt lat="43.5941" lon="6.45164">
        <ele>435</ele>
        <time>2017-06-02T09:10:24Z</time>
      </trkpt>
      <trkpt lat="43.59403" lon="6.45172">
        <ele>434.8</ele>
        <time>2017-06-02T09:10:33Z</time>
      </trkpt>
      <trkpt lat="43.59398" lon="6.45183">
        <ele>434.9</ele>
        <time>2017-06-02T09:10:41Z</time>
      </trkpt>
      <trkpt lat="43.59395" lon="6.45197">
        <ele>435.2</ele>
        <time>2017-06-02T09:10:50Z</time>
      </trkpt>
      <trkpt lat="43.59392" lon="6.45209">
        <ele>435.3</ele>
        <time>2017-06-02T09:11:02Z</time>
      </trkpt>
      <trkpt lat="43.59391" lon="6.45222">
        <ele>435.6</ele>
        <time>2017-06-02T09:11:11Z</time>
      </trkpt>
      <trkpt lat="43.59389" lon="6.45235">
        <ele>435.3</ele>
        <time>2017-06-02T09:11:19Z</time>
      </trkpt>
      <trkpt lat="43.59388" lon="6.45247">
        <ele>435.3</ele>
        <time>2017-06-02T09:11:27Z</time>
      </trkpt>
      <trkpt lat="43.59385" lon="6.45259">
        <ele>435.4</ele>
        <time>2017-06-02T09:11:35Z</time>
      </trkpt>
      <trkpt lat="43.59382" lon="6.45271">
        <ele>435.3</ele>
        <time>2017-06-02T09:11:43Z</time>
      </trkpt>
      <trkpt lat="43.59377" lon="6.45284">
        <ele>435.8</ele>
        <time>2017-06-02T09:11:53Z</time>
      </trkpt>
      <trkpt lat="43.59371" lon="6.45294">
        <ele>436</ele>
        <time>2017-06-02T09:12:01Z</time>
      </trkpt>
      <trkpt lat="43.59365" lon="6.45303">
        <ele>436.1</ele>
        <time>2017-06-02T09:12:09Z</time>
      </trkpt>
      <trkpt lat="43.59357" lon="6.45312">
        <ele>436.3</ele>
        <time>2017-06-02T09:12:18Z</time>
      </trkpt>
      <trkpt lat="43.59349" lon="6.45319">
        <ele>436.7</ele>
        <time>2017-06-02T09:12:27Z</time>
      </trkpt>
      <trkpt lat="43.59341" lon="6.45327">
        <ele>436.2</ele>
        <time>2017-06-02T09:12:35Z</time>
      </trkpt>
      <trkpt lat="43.59333" lon="6.45334">
        <ele>436.8</ele>
        <time>2017-06-02T09:12:43Z</time>
      </trkpt>
      <trkpt lat="43.59326" lon="6.45342">
        <ele>436.4</ele>
        <time>2017-06-02T09:12:58Z</time>
      </trkpt>
      <trkpt lat="43.5932" lon="6.45352">
        <ele>436.6</ele>
        <time>2017-06-02T09:13:09Z</time>
      </trkpt>
      <trkpt lat="43.59312" lon="6.45363">
        <ele>436.6</ele>
        <time>2017-06-02T09:13:17Z</time>
      </trkpt>
      <trkpt lat="43.59307" lon="6.45374">
        <ele>437.1</ele>
        <time>2017-06-02T09:13:23Z</time>
      </trkpt>
      <trkpt lat="43.59302" lon="6.45386">
        <ele>437.6</ele>
        <time>2017-06-02T09:13:33Z</time>
      </trkpt>
      <trkpt lat="43.59302" lon="6.45401">
        <ele>438.4</ele>
        <time>2017-06-02T09:13:41Z</time>
      </trkpt>
      <trkpt lat="43.59301" lon="6.45413">
        <ele>439.9</ele>
        <time>2017-06-02T09:13:49Z</time>
      </trkpt>
      <trkpt lat="43.59304" lon="6.45426">
        <ele>440.5</ele>
        <time>2017-06-02T09:13:57Z</time>
      </trkpt>
      <trkpt lat="43.59305" lon="6.45439">
        <ele>441</ele>
        <time>2017-06-02T09:14:06Z</time>
      </trkpt>
      <trkpt lat="43.59304" lon="6.45452">
        <ele>440.9</ele>
        <time>2017-06-02T09:14:14Z</time>
      </trkpt>
      <trkpt lat="43.59303" lon="6.45465">
        <ele>441.1</ele>
        <time>2017-06-02T09:14:22Z</time>
      </trkpt>
      <trkpt lat="43.59304" lon="6.45479">
        <ele>441.2</ele>
        <time>2017-06-02T09:14:31Z</time>
      </trkpt>
      <trkpt lat="43.59306" lon="6.45492">
        <ele>441.4</ele>
        <time>2017-06-02T09:14:40Z</time>
      </trkpt>
      <trkpt lat="43.59308" lon="6.45505">
        <ele>441.2</ele>
        <time>2017-06-02T09:14:49Z</time>
      </trkpt>
      <trkpt lat="43.59311" lon="6.45517">
        <ele>441.5</ele>
        <time>2017-06-02T09:14:59Z</time>
      </trkpt>
      <trkpt lat="43.59313" lon="6.4553">
        <ele>441.9</ele>
        <time>2017-06-02T09:15:09Z</time>
      </trkpt>
      <trkpt lat="43.59318" lon="6.45542">
        <ele>442</ele>
        <time>2017-06-02T09:15:18Z</time>
      </trkpt>
      <trkpt lat="43.59316" lon="6.45556">
        <ele>441.9</ele>
        <time>2017-06-02T09:15:31Z</time>
      </trkpt>
      <trkpt lat="43.59316" lon="6.45569">
        <ele>441.8</ele>
        <time>2017-06-02T09:15:39Z</time>
      </trkpt>
      <trkpt lat="43.59313" lon="6.45581">
        <ele>442.1</ele>
        <time>2017-06-02T09:15:46Z</time>
      </trkpt>
      <trkpt lat="43.59312" lon="6.45595">
        <ele>442.3</ele>
        <time>2017-06-02T09:15:55Z</time>
      </trkpt>
      <trkpt lat="43.59313" lon="6.45609">
        <ele>442.3</ele>
        <time>2017-06-02T09:16:03Z</time>
      </trkpt>
      <trkpt lat="43.59315" lon="6.45621">
        <ele>442.4</ele>
        <time>2017-06-02T09:16:11Z</time>
      </trkpt>
      <trkpt lat="43.59317" lon="6.45634">
        <ele>442.5</ele>
        <time>2017-06-02T09:16:19Z</time>
      </trkpt>
      <trkpt lat="43.59321" lon="6.45646">
        <ele>442.5</ele>
        <time>2017-06-02T09:16:28Z</time>
      </trkpt>
      <trkpt lat="43.59324" lon="6.45658">
        <ele>442.6</ele>
        <time>2017-06-02T09:16:36Z</time>
      </trkpt>
      <trkpt lat="43.59328" lon="6.4567">
        <ele>442.6</ele>
        <time>2017-06-02T09:16:45Z</time>
      </trkpt>
      <trkpt lat="43.59332" lon="6.45681">
        <ele>442.9</ele>
        <time>2017-06-02T09:16:54Z</time>
      </trkpt>
      <trkpt lat="43.59337" lon="6.45692">
        <ele>443.4</ele>
        <time>2017-06-02T09:17:04Z</time>
      </trkpt>
      <trkpt lat="43.59343" lon="6.45702">
        <ele>443.6</ele>
        <time>2017-06-02T09:17:12Z</time>
      </trkpt>
      <trkpt lat="43.59346" lon="6.45714">
        <ele>443.6</ele>
        <time>2017-06-02T09:17:20Z</time>
      </trkpt>
      <trkpt lat="43.5935" lon="6.45725">
        <ele>443.6</ele>
        <time>2017-06-02T09:17:29Z</time>
      </trkpt>
      <trkpt lat="43.59354" lon="6.45737">
        <ele>443.6</ele>
        <time>2017-06-02T09:17:37Z</time>
      </trkpt>
      <trkpt lat="43.59357" lon="6.45749">
        <ele>443.8</ele>
        <time>2017-06-02T09:17:45Z</time>
      </trkpt>
      <trkpt lat="43.59358" lon="6.45762">
        <ele>444.2</ele>
        <time>2017-06-02T09:17:54Z</time>
      </trkpt>
      <trkpt lat="43.59357" lon="6.45775">
        <ele>444.3</ele>
        <time>2017-06-02T09:18:14Z</time>
      </trkpt>
      <trkpt lat="43.59353" lon="6.45788">
        <ele>443.7</ele>
        <time>2017-06-02T09:18:23Z</time>
      </trkpt>
      <trkpt lat="43.59348" lon="6.45798">
        <ele>443.6</ele>
        <time>2017-06-02T09:18:34Z</time>
      </trkpt>
      <trkpt lat="43.59341" lon="6.45807">
        <ele>444</ele>
        <time>2017-06-02T09:18:41Z</time>
      </trkpt>
      <trkpt lat="43.59335" lon="6.45817">
        <ele>443.8</ele>
        <time>2017-06-02T09:18:49Z</time>
      </trkpt>
      <trkpt lat="43.5933" lon="6.45827">
        <ele>443.7</ele>
        <time>2017-06-02T09:18:57Z</time>
      </trkpt>
      <trkpt lat="43.59328" lon="6.4584">
        <ele>444.1</ele>
        <time>2017-06-02T09:19:05Z</time>
      </trkpt>
      <trkpt lat="43.59323" lon="6.45852">
        <ele>444.3</ele>
        <time>2017-06-02T09:19:14Z</time>
      </trkpt>
      <trkpt lat="43.5932" lon="6.45864">
        <ele>444.3</ele>
        <time>2017-06-02T09:19:22Z</time>
      </trkpt>
      <trkpt lat="43.59318" lon="6.45877">
        <ele>444.3</ele>
        <time>2017-06-02T09:19:31Z</time>
      </trkpt>
      <trkpt lat="43.59317" lon="6.4589">
        <ele>444.4</ele>
        <time>2017-06-02T09:19:39Z</time>
      </trkpt>
      <trkpt lat="43.59317" lon="6.45904">
        <ele>444.3</ele>
        <time>2017-06-02T09:19:48Z</time>
      </trkpt>
      <trkpt lat="43.59316" lon="6.45918">
        <ele>444.5</ele>
        <time>2017-06-02T09:19:57Z</time>
      </trkpt>
      <trkpt lat="43.59315" lon="6.4593">
        <ele>444.6</ele>
        <time>2017-06-02T09:20:05Z</time>
      </trkpt>
      <trkpt lat="43.59313" lon="6.45944">
        <ele>444.4</ele>
        <time>2017-06-02T09:20:14Z</time>
      </trkpt>
      <trkpt lat="43.59313" lon="6.45957">
        <ele>444.4</ele>
        <time>2017-06-02T09:20:24Z</time>
      </trkpt>
      <trkpt lat="43.59309" lon="6.45969">
        <ele>444.5</ele>
        <time>2017-06-02T09:20:32Z</time>
      </trkpt>
      <trkpt lat="43.59309" lon="6.45982">
        <ele>444.3</ele>
        <time>2017-06-02T09:20:52Z</time>
      </trkpt>
      <trkpt lat="43.5931" lon="6.45994">
        <ele>444.5</ele>
        <time>2017-06-02T09:21:05Z</time>
      </trkpt>
      <trkpt lat="43.59304" lon="6.46003">
        <ele>444.5</ele>
        <time>2017-06-02T09:21:18Z</time>
      </trkpt>
      <trkpt lat="43.59301" lon="6.46015">
        <ele>444.6</ele>
        <time>2017-06-02T09:21:27Z</time>
      </trkpt>
      <trkpt lat="43.59296" lon="6.46028">
        <ele>444.7</ele>
        <time>2017-06-02T09:22:04Z</time>
      </trkpt>
      <trkpt lat="43.59291" lon="6.46038">
        <ele>445.1</ele>
        <time>2017-06-02T09:22:11Z</time>
      </trkpt>
      <trkpt lat="43.59286" lon="6.46049">
        <ele>445.3</ele>
        <time>2017-06-02T09:22:19Z</time>
      </trkpt>
      <trkpt lat="43.59281" lon="6.4606">
        <ele>445.3</ele>
        <time>2017-06-02T09:22:36Z</time>
      </trkpt>
      <trkpt lat="43.59276" lon="6.46072">
        <ele>445.2</ele>
        <time>2017-06-02T09:22:44Z</time>
      </trkpt>
      <trkpt lat="43.59272" lon="6.46084">
        <ele>445.5</ele>
        <time>2017-06-02T09:22:53Z</time>
      </trkpt>
      <trkpt lat="43.59272" lon="6.46098">
        <ele>445.5</ele>
        <time>2017-06-02T09:23:00Z</time>
      </trkpt>
      <trkpt lat="43.59273" lon="6.46111">
        <ele>445.6</ele>
        <time>2017-06-02T09:23:08Z</time>
      </trkpt>
      <trkpt lat="43.59275" lon="6.46124">
        <ele>445.7</ele>
        <time>2017-06-02T09:23:17Z</time>
      </trkpt>
      <trkpt lat="43.59278" lon="6.46137">
        <ele>445.7</ele>
        <time>2017-06-02T09:23:26Z</time>
      </trkpt>
      <trkpt lat="43.59281" lon="6.4615">
        <ele>445.7</ele>
        <time>2017-06-02T09:23:35Z</time>
      </trkpt>
      <trkpt lat="43.59285" lon="6.46162">
        <ele>446.1</ele>
        <time>2017-06-02T09:23:50Z</time>
      </trkpt>
      <trkpt lat="43.59284" lon="6.46175">
        <ele>446.2</ele>
        <time>2017-06-02T09:23:59Z</time>
      </trkpt>
      <trkpt lat="43.59287" lon="6.46188">
        <ele>445.5</ele>
        <time>2017-06-02T09:24:08Z</time>
      </trkpt>
      <trkpt lat="43.59293" lon="6.46199">
        <ele>445.4</ele>
        <time>2017-06-02T09:24:18Z</time>
      </trkpt>
      <trkpt lat="43.59299" lon="6.4621">
        <ele>444</ele>
        <time>2017-06-02T09:24:27Z</time>
      </trkpt>
      <trkpt lat="43.59304" lon="6.46221">
        <ele>444.7</ele>
        <time>2017-06-02T09:24:37Z</time>
      </trkpt>
      <trkpt lat="43.59311" lon="6.46229">
        <ele>444.6</ele>
        <time>2017-06-02T09:24:45Z</time>
      </trkpt>
      <trkpt lat="43.59318" lon="6.46239">
        <ele>444.3</ele>
        <time>2017-06-02T09:24:53Z</time>
      </trkpt>
      <trkpt lat="43.59323" lon="6.46249">
        <ele>444.4</ele>
        <time>2017-06-02T09:25:01Z</time>
      </trkpt>
      <trkpt lat="43.59328" lon="6.4626">
        <ele>443.1</ele>
        <time>2017-06-02T09:25:08Z</time>
      </trkpt>
      <trkpt lat="43.59328" lon="6.46272">
        <ele>443.6</ele>
        <time>2017-06-02T09:25:15Z</time>
      </trkpt>
      <trkpt lat="43.59335" lon="6.46282">
        <ele>444.8</ele>
        <time>2017-06-02T09:25:24Z</time>
      </trkpt>
      <trkpt lat="43.59337" lon="6.46295">
        <ele>445.4</ele>
        <time>2017-06-02T09:25:33Z</time>
      </trkpt>
      <trkpt lat="43.59337" lon="6.46308">
        <ele>446.4</ele>
        <time>2017-06-02T09:25:41Z</time>
      </trkpt>
      <trkpt lat="43.59335" lon="6.4632">
        <ele>447.5</ele>
        <time>2017-06-02T09:25:49Z</time>
      </trkpt>
      <trkpt lat="43.59334" lon="6.46333">
        <ele>448</ele>
        <time>2017-06-02T09:25:58Z</time>
      </trkpt>
      <trkpt lat="43.59335" lon="6.46346">
        <ele>448.4</ele>
        <time>2017-06-02T09:26:06Z</time>
      </trkpt>
      <trkpt lat="43.59333" lon="6.46358">
        <ele>447.5</ele>
        <time>2017-06-02T09:26:17Z</time>
      </trkpt>
      <trkpt lat="43.59335" lon="6.4637">
        <ele>446.3</ele>
        <time>2017-06-02T09:26:32Z</time>
      </trkpt>
      <trkpt lat="43.59332" lon="6.46384">
        <ele>447.3</ele>
        <time>2017-06-02T09:26:41Z</time>
      </trkpt>
      <trkpt lat="43.59336" lon="6.46395">
        <ele>447.2</ele>
        <time>2017-06-02T09:26:48Z</time>
      </trkpt>
      <trkpt lat="43.5934" lon="6.46407">
        <ele>447.8</ele>
        <time>2017-06-02T09:26:57Z</time>
      </trkpt>
      <trkpt lat="43.59341" lon="6.46421">
        <ele>447.3</ele>
        <time>2017-06-02T09:27:05Z</time>
      </trkpt>
      <trkpt lat="43.5934" lon="6.46434">
        <ele>447.7</ele>
        <time>2017-06-02T09:27:14Z</time>
      </trkpt>
      <trkpt lat="43.59343" lon="6.46446">
        <ele>448.3</ele>
        <time>2017-06-02T09:27:23Z</time>
      </trkpt>
      <trkpt lat="43.59351" lon="6.46453">
        <ele>448.5</ele>
        <time>2017-06-02T09:27:29Z</time>
      </trkpt>
      <trkpt lat="43.59357" lon="6.46464">
        <ele>449.1</ele>
        <time>2017-06-02T09:27:38Z</time>
      </trkpt>
      <trkpt lat="43.59359" lon="6.46477">
        <ele>449.5</ele>
        <time>2017-06-02T09:27:47Z</time>
      </trkpt>
      <trkpt lat="43.59364" lon="6.46489">
        <ele>450</ele>
        <time>2017-06-02T09:27:56Z</time>
      </trkpt>
      <trkpt lat="43.59362" lon="6.46501">
        <ele>450.8</ele>
        <time>2017-06-02T09:28:04Z</time>
      </trkpt>
      <trkpt lat="43.59364" lon="6.46515">
        <ele>452</ele>
        <time>2017-06-02T09:28:15Z</time>
      </trkpt>
      <trkpt lat="43.59366" lon="6.46527">
        <ele>452.6</ele>
        <time>2017-06-02T09:28:23Z</time>
      </trkpt>
      <trkpt lat="43.59368" lon="6.4654">
        <ele>453</ele>
        <time>2017-06-02T09:28:32Z</time>
      </trkpt>
      <trkpt lat="43.59368" lon="6.46552">
        <ele>453.1</ele>
        <time>2017-06-02T09:28:40Z</time>
      </trkpt>
      <trkpt lat="43.59366" lon="6.46565">
        <ele>453.2</ele>
        <time>2017-06-02T09:28:49Z</time>
      </trkpt>
      <trkpt lat="43.59367" lon="6.46578">
        <ele>452.9</ele>
        <time>2017-06-02T09:28:58Z</time>
      </trkpt>
      <trkpt lat="43.59363" lon="6.46589">
        <ele>453.5</ele>
        <time>2017-06-02T09:29:04Z</time>
      </trkpt>
      <trkpt lat="43.59362" lon="6.46603">
        <ele>453.6</ele>
        <time>2017-06-02T09:29:12Z</time>
      </trkpt>
      <trkpt lat="43.59363" lon="6.46616">
        <ele>453.6</ele>
        <time>2017-06-02T09:29:21Z</time>
      </trkpt>
      <trkpt lat="43.5936" lon="6.46629">
        <ele>453.8</ele>
        <time>2017-06-02T09:29:31Z</time>
      </trkpt>
      <trkpt lat="43.59356" lon="6.46641">
        <ele>454.1</ele>
        <time>2017-06-02T09:29:40Z</time>
      </trkpt>
      <trkpt lat="43.59359" lon="6.46654">
        <ele>454.2</ele>
        <time>2017-06-02T09:29:48Z</time>
      </trkpt>
      <trkpt lat="43.59361" lon="6.46667">
        <ele>454.3</ele>
        <time>2017-06-02T09:30:03Z</time>
      </trkpt>
      <trkpt lat="43.59365" lon="6.4668">
        <ele>454.4</ele>
        <time>2017-06-02T09:30:12Z</time>
      </trkpt>
      <trkpt lat="43.59371" lon="6.46689">
        <ele>454.7</ele>
        <time>2017-06-02T09:30:21Z</time>
      </trkpt>
      <trkpt lat="43.59377" lon="6.46698">
        <ele>454.9</ele>
        <time>2017-06-02T09:30:31Z</time>
      </trkpt>
      <trkpt lat="43.59384" lon="6.46707">
        <ele>454.6</ele>
        <time>2017-06-02T09:30:40Z</time>
      </trkpt>
      <trkpt lat="43.59392" lon="6.46716">
        <ele>454.6</ele>
        <time>2017-06-02T09:30:47Z</time>
      </trkpt>
      <trkpt lat="43.59394" lon="6.46723">
        <ele>452.6</ele>
        <time>2017-06-02T09:31:02Z</time>
      </trkpt>
    </trkseg>
  </trk>
</gpx>